<?xml version="1.0" encoding="UTF-8" standalone="no" ?>
<gpx xmlns="http://www.topografix.com/GPX/1/1" xmlns:xsi="http://www.w3.org/2001/XMLSchema-instance" xsi:schemaLocation="http://www.topografix.com/GPX/1/1 http://www.topografix.com/GPX/1/1/gpx.xsd" version="1.1" creator="VisuGPX - https://www.visugpx.com">
  <metadata>
    <name>St-hil</name>
    <desc><![CDATA[
]]></desc>
  </metadata>
  <trk>
    <name><![CDATA[St-hil_1]]></name>
    <extensions>
      <line xmlns="http://www.topografix.com/GPX/gpx_style/0/2">
        <color>0000FF</color>
        <width>4</width>
      </line>
    </extensions>
    <trkseg>
      <trkpt lat="45.31391" lon="5.88602">
        <ele>953.44702148438</ele>
        <time>2017-12-02T08:39:54Z</time>
      </trkpt>
      <trkpt lat="45.31401" lon="5.88608">
        <ele>973.44799804688</ele>
        <time>2017-12-02T08:40:00Z</time>
      </trkpt>
      <trkpt lat="45.31399" lon="5.886">
        <ele>966.44702148438</ele>
        <time>2017-12-02T08:40:59Z</time>
      </trkpt>
      <trkpt lat="45.31395" lon="5.88594">
        <ele>966.44702148438</ele>
        <time>2017-12-02T08:41:01Z</time>
      </trkpt>
      <trkpt lat="45.31391" lon="5.8859">
        <ele>968.44702148438</ele>
        <time>2017-12-02T08:41:04Z</time>
      </trkpt>
      <trkpt lat="45.3139" lon="5.88583">
        <ele>970.44702148438</ele>
        <time>2017-12-02T08:41:09Z</time>
      </trkpt>
      <trkpt lat="45.31386" lon="5.88576">
        <ele>970.44702148438</ele>
        <time>2017-12-02T08:41:13Z</time>
      </trkpt>
      <trkpt lat="45.31383" lon="5.88569">
        <ele>969.44702148438</ele>
        <time>2017-12-02T08:41:17Z</time>
      </trkpt>
      <trkpt lat="45.3138" lon="5.88563">
        <ele>972.44702148438</ele>
        <time>2017-12-02T08:41:21Z</time>
      </trkpt>
      <trkpt lat="45.31377" lon="5.88556">
        <ele>972.44702148438</ele>
        <time>2017-12-02T08:41:25Z</time>
      </trkpt>
      <trkpt lat="45.31375" lon="5.88551">
        <ele>972.44702148438</ele>
        <time>2017-12-02T08:41:29Z</time>
      </trkpt>
      <trkpt lat="45.31373" lon="5.88545">
        <ele>972.44702148438</ele>
        <time>2017-12-02T08:41:32Z</time>
      </trkpt>
      <trkpt lat="45.31372" lon="5.88538">
        <ele>973.44702148438</ele>
        <time>2017-12-02T08:41:36Z</time>
      </trkpt>
      <trkpt lat="45.31371" lon="5.88531">
        <ele>974.44702148438</ele>
        <time>2017-12-02T08:41:39Z</time>
      </trkpt>
      <trkpt lat="45.3137" lon="5.88524">
        <ele>974.44702148438</ele>
        <time>2017-12-02T08:41:42Z</time>
      </trkpt>
      <trkpt lat="45.31369" lon="5.88517">
        <ele>975.44702148438</ele>
        <time>2017-12-02T08:41:46Z</time>
      </trkpt>
      <trkpt lat="45.31369" lon="5.8851">
        <ele>977.44702148438</ele>
        <time>2017-12-02T08:41:49Z</time>
      </trkpt>
      <trkpt lat="45.31368" lon="5.88503">
        <ele>977.44702148438</ele>
        <time>2017-12-02T08:41:53Z</time>
      </trkpt>
      <trkpt lat="45.3137" lon="5.88496">
        <ele>976.44702148438</ele>
        <time>2017-12-02T08:41:55Z</time>
      </trkpt>
      <trkpt lat="45.31369" lon="5.88488">
        <ele>977.44702148438</ele>
        <time>2017-12-02T08:41:59Z</time>
      </trkpt>
      <trkpt lat="45.31368" lon="5.88479">
        <ele>980.44702148438</ele>
        <time>2017-12-02T08:42:03Z</time>
      </trkpt>
      <trkpt lat="45.31367" lon="5.88473">
        <ele>981.44702148438</ele>
        <time>2017-12-02T08:42:07Z</time>
      </trkpt>
      <trkpt lat="45.31367" lon="5.88465">
        <ele>982.44702148438</ele>
        <time>2017-12-02T08:42:12Z</time>
      </trkpt>
      <trkpt lat="45.31367" lon="5.88458">
        <ele>982.44702148438</ele>
        <time>2017-12-02T08:42:17Z</time>
      </trkpt>
      <trkpt lat="45.31366" lon="5.88451">
        <ele>983.44702148438</ele>
        <time>2017-12-02T08:42:22Z</time>
      </trkpt>
      <trkpt lat="45.31366" lon="5.88444">
        <ele>983.44702148438</ele>
        <time>2017-12-02T08:42:27Z</time>
      </trkpt>
      <trkpt lat="45.31366" lon="5.88437">
        <ele>984.44702148438</ele>
        <time>2017-12-02T08:42:31Z</time>
      </trkpt>
      <trkpt lat="45.31366" lon="5.8843">
        <ele>984.44702148438</ele>
        <time>2017-12-02T08:42:36Z</time>
      </trkpt>
      <trkpt lat="45.31365" lon="5.88423">
        <ele>986.44702148438</ele>
        <time>2017-12-02T08:42:42Z</time>
      </trkpt>
      <trkpt lat="45.31366" lon="5.88415">
        <ele>987.44702148438</ele>
        <time>2017-12-02T08:42:48Z</time>
      </trkpt>
      <trkpt lat="45.31366" lon="5.88407">
        <ele>988.44702148438</ele>
        <time>2017-12-02T08:42:53Z</time>
      </trkpt>
      <trkpt lat="45.31367" lon="5.88399">
        <ele>989.44702148438</ele>
        <time>2017-12-02T08:42:58Z</time>
      </trkpt>
      <trkpt lat="45.31369" lon="5.88393">
        <ele>992.44702148438</ele>
        <time>2017-12-02T08:43:04Z</time>
      </trkpt>
      <trkpt lat="45.3137" lon="5.88386">
        <ele>993.44702148438</ele>
        <time>2017-12-02T08:43:09Z</time>
      </trkpt>
      <trkpt lat="45.31372" lon="5.8838">
        <ele>994.44702148438</ele>
        <time>2017-12-02T08:43:12Z</time>
      </trkpt>
      <trkpt lat="45.31375" lon="5.88373">
        <ele>995.44702148438</ele>
        <time>2017-12-02T08:43:17Z</time>
      </trkpt>
      <trkpt lat="45.31377" lon="5.88366">
        <ele>998.44702148438</ele>
        <time>2017-12-02T08:43:25Z</time>
      </trkpt>
      <trkpt lat="45.31378" lon="5.88359">
        <ele>996.44702148438</ele>
        <time>2017-12-02T08:43:34Z</time>
      </trkpt>
      <trkpt lat="45.31379" lon="5.88352">
        <ele>1002.4470214844</ele>
        <time>2017-12-02T08:43:41Z</time>
      </trkpt>
      <trkpt lat="45.31381" lon="5.88346">
        <ele>1005.4470214844</ele>
        <time>2017-12-02T08:43:46Z</time>
      </trkpt>
      <trkpt lat="45.31383" lon="5.8834">
        <ele>1003.4470214844</ele>
        <time>2017-12-02T08:43:51Z</time>
      </trkpt>
      <trkpt lat="45.31385" lon="5.88333">
        <ele>1006.4470214844</ele>
        <time>2017-12-02T08:44:00Z</time>
      </trkpt>
      <trkpt lat="45.31388" lon="5.88326">
        <ele>1005.4470214844</ele>
        <time>2017-12-02T08:44:04Z</time>
      </trkpt>
      <trkpt lat="45.31391" lon="5.8832">
        <ele>1009.4470214844</ele>
        <time>2017-12-02T08:44:09Z</time>
      </trkpt>
      <trkpt lat="45.31394" lon="5.88314">
        <ele>1013.4470214844</ele>
        <time>2017-12-02T08:44:16Z</time>
      </trkpt>
      <trkpt lat="45.31398" lon="5.8831">
        <ele>1013.4470214844</ele>
        <time>2017-12-02T08:44:18Z</time>
      </trkpt>
      <trkpt lat="45.314" lon="5.88302">
        <ele>1015.4470214844</ele>
        <time>2017-12-02T08:44:23Z</time>
      </trkpt>
      <trkpt lat="45.31404" lon="5.88299">
        <ele>1014.4470214844</ele>
        <time>2017-12-02T08:44:25Z</time>
      </trkpt>
      <trkpt lat="45.31406" lon="5.88293">
        <ele>1017.4470214844</ele>
        <time>2017-12-02T08:44:49Z</time>
      </trkpt>
      <trkpt lat="45.31411" lon="5.88288">
        <ele>1016.4470214844</ele>
        <time>2017-12-02T08:44:51Z</time>
      </trkpt>
      <trkpt lat="45.31416" lon="5.88285">
        <ele>1016.4470214844</ele>
        <time>2017-12-02T08:44:54Z</time>
      </trkpt>
      <trkpt lat="45.3142" lon="5.8828">
        <ele>1019.4470214844</ele>
        <time>2017-12-02T08:44:57Z</time>
      </trkpt>
      <trkpt lat="45.31419" lon="5.88273">
        <ele>1019.4470214844</ele>
        <time>2017-12-02T08:45:01Z</time>
      </trkpt>
      <trkpt lat="45.31416" lon="5.88267">
        <ele>1019.4470214844</ele>
        <time>2017-12-02T08:45:05Z</time>
      </trkpt>
      <trkpt lat="45.31414" lon="5.88261">
        <ele>1020.4470214844</ele>
        <time>2017-12-02T08:45:11Z</time>
      </trkpt>
      <trkpt lat="45.3141" lon="5.88256">
        <ele>1023.4470214844</ele>
        <time>2017-12-02T08:45:16Z</time>
      </trkpt>
      <trkpt lat="45.3141" lon="5.8825">
        <ele>1026.4470214844</ele>
        <time>2017-12-02T08:45:24Z</time>
      </trkpt>
      <trkpt lat="45.31409" lon="5.88243">
        <ele>1030.4470214844</ele>
        <time>2017-12-02T08:45:31Z</time>
      </trkpt>
      <trkpt lat="45.31411" lon="5.88234">
        <ele>1030.4470214844</ele>
        <time>2017-12-02T08:45:38Z</time>
      </trkpt>
      <trkpt lat="45.31407" lon="5.8823">
        <ele>1033.4470214844</ele>
        <time>2017-12-02T08:45:44Z</time>
      </trkpt>
      <trkpt lat="45.31407" lon="5.88221">
        <ele>1032.4470214844</ele>
        <time>2017-12-02T08:45:50Z</time>
      </trkpt>
      <trkpt lat="45.31405" lon="5.88214">
        <ele>1034.4470214844</ele>
        <time>2017-12-02T08:45:56Z</time>
      </trkpt>
      <trkpt lat="45.31407" lon="5.88207">
        <ele>1036.4470214844</ele>
        <time>2017-12-02T08:46:03Z</time>
      </trkpt>
      <trkpt lat="45.31411" lon="5.88202">
        <ele>1040.4470214844</ele>
        <time>2017-12-02T08:46:11Z</time>
      </trkpt>
      <trkpt lat="45.31413" lon="5.88196">
        <ele>1044.4470214844</ele>
        <time>2017-12-02T08:46:19Z</time>
      </trkpt>
      <trkpt lat="45.31415" lon="5.88191">
        <ele>1046.4470214844</ele>
        <time>2017-12-02T08:46:24Z</time>
      </trkpt>
      <trkpt lat="45.31417" lon="5.88184">
        <ele>1050.4470214844</ele>
        <time>2017-12-02T08:46:29Z</time>
      </trkpt>
      <trkpt lat="45.3142" lon="5.88178">
        <ele>1051.4470214844</ele>
        <time>2017-12-02T08:46:34Z</time>
      </trkpt>
      <trkpt lat="45.31422" lon="5.88171">
        <ele>1052.4470214844</ele>
        <time>2017-12-02T08:46:42Z</time>
      </trkpt>
      <trkpt lat="45.31421" lon="5.88165">
        <ele>1051.4470214844</ele>
        <time>2017-12-02T08:46:47Z</time>
      </trkpt>
      <trkpt lat="45.31419" lon="5.88158">
        <ele>1051.4470214844</ele>
        <time>2017-12-02T08:46:52Z</time>
      </trkpt>
      <trkpt lat="45.31415" lon="5.88154">
        <ele>1052.4470214844</ele>
        <time>2017-12-02T08:46:58Z</time>
      </trkpt>
      <trkpt lat="45.31411" lon="5.88152">
        <ele>1053.4470214844</ele>
        <time>2017-12-02T08:47:03Z</time>
      </trkpt>
      <trkpt lat="45.31407" lon="5.88149">
        <ele>1054.4470214844</ele>
        <time>2017-12-02T08:47:09Z</time>
      </trkpt>
      <trkpt lat="45.31403" lon="5.88144">
        <ele>1056.4470214844</ele>
        <time>2017-12-02T08:47:14Z</time>
      </trkpt>
      <trkpt lat="45.31403" lon="5.88137">
        <ele>1062.4470214844</ele>
        <time>2017-12-02T08:47:26Z</time>
      </trkpt>
      <trkpt lat="45.31405" lon="5.88131">
        <ele>1064.4470214844</ele>
        <time>2017-12-02T08:47:33Z</time>
      </trkpt>
      <trkpt lat="45.31409" lon="5.88124">
        <ele>1065.4470214844</ele>
        <time>2017-12-02T08:47:36Z</time>
      </trkpt>
      <trkpt lat="45.3141" lon="5.88118">
        <ele>1068.4470214844</ele>
        <time>2017-12-02T08:47:44Z</time>
      </trkpt>
      <trkpt lat="45.3141" lon="5.88111">
        <ele>1069.4470214844</ele>
        <time>2017-12-02T08:47:50Z</time>
      </trkpt>
      <trkpt lat="45.31405" lon="5.88106">
        <ele>1070.4470214844</ele>
        <time>2017-12-02T08:47:58Z</time>
      </trkpt>
      <trkpt lat="45.31402" lon="5.881">
        <ele>1068.4470214844</ele>
        <time>2017-12-02T08:48:03Z</time>
      </trkpt>
      <trkpt lat="45.31398" lon="5.88097">
        <ele>1069.4470214844</ele>
        <time>2017-12-02T08:48:10Z</time>
      </trkpt>
      <trkpt lat="45.31393" lon="5.88097">
        <ele>1069.4470214844</ele>
        <time>2017-12-02T08:48:14Z</time>
      </trkpt>
      <trkpt lat="45.31389" lon="5.88096">
        <ele>1074.4470214844</ele>
        <time>2017-12-02T08:48:17Z</time>
      </trkpt>
      <trkpt lat="45.31384" lon="5.88093">
        <ele>1076.4470214844</ele>
        <time>2017-12-02T08:48:22Z</time>
      </trkpt>
      <trkpt lat="45.31379" lon="5.8809">
        <ele>1077.4470214844</ele>
        <time>2017-12-02T08:48:28Z</time>
      </trkpt>
      <trkpt lat="45.31376" lon="5.88085">
        <ele>1080.4470214844</ele>
        <time>2017-12-02T08:48:35Z</time>
      </trkpt>
      <trkpt lat="45.31378" lon="5.88079">
        <ele>1081.4470214844</ele>
        <time>2017-12-02T08:48:39Z</time>
      </trkpt>
      <trkpt lat="45.31377" lon="5.88072">
        <ele>1083.4470214844</ele>
        <time>2017-12-02T08:48:46Z</time>
      </trkpt>
      <trkpt lat="45.3138" lon="5.88067">
        <ele>1083.4470214844</ele>
        <time>2017-12-02T08:48:49Z</time>
      </trkpt>
      <trkpt lat="45.31381" lon="5.8806">
        <ele>1087.4470214844</ele>
        <time>2017-12-02T08:48:59Z</time>
      </trkpt>
      <trkpt lat="45.31384" lon="5.88054">
        <ele>1086.4470214844</ele>
        <time>2017-12-02T08:49:03Z</time>
      </trkpt>
      <trkpt lat="45.31381" lon="5.88049">
        <ele>1091.4470214844</ele>
        <time>2017-12-02T08:49:11Z</time>
      </trkpt>
      <trkpt lat="45.31377" lon="5.88043">
        <ele>1093.4470214844</ele>
        <time>2017-12-02T08:49:17Z</time>
      </trkpt>
      <trkpt lat="45.31372" lon="5.88039">
        <ele>1094.4470214844</ele>
        <time>2017-12-02T08:49:23Z</time>
      </trkpt>
      <trkpt lat="45.31367" lon="5.88035">
        <ele>1095.4470214844</ele>
        <time>2017-12-02T08:49:30Z</time>
      </trkpt>
      <trkpt lat="45.31362" lon="5.88034">
        <ele>1099.4470214844</ele>
        <time>2017-12-02T08:51:06Z</time>
      </trkpt>
      <trkpt lat="45.3136" lon="5.88026">
        <ele>1102.4470214844</ele>
        <time>2017-12-02T08:51:15Z</time>
      </trkpt>
      <trkpt lat="45.31358" lon="5.8802">
        <ele>1100.4470214844</ele>
        <time>2017-12-02T08:51:21Z</time>
      </trkpt>
      <trkpt lat="45.31362" lon="5.88011">
        <ele>1102.4470214844</ele>
        <time>2017-12-02T08:51:27Z</time>
      </trkpt>
      <trkpt lat="45.31365" lon="5.88005">
        <ele>1102.4470214844</ele>
        <time>2017-12-02T08:51:30Z</time>
      </trkpt>
      <trkpt lat="45.31368" lon="5.87999">
        <ele>1102.4470214844</ele>
        <time>2017-12-02T08:51:34Z</time>
      </trkpt>
      <trkpt lat="45.31368" lon="5.87992">
        <ele>1104.4470214844</ele>
        <time>2017-12-02T08:51:38Z</time>
      </trkpt>
      <trkpt lat="45.31363" lon="5.87987">
        <ele>1110.4470214844</ele>
        <time>2017-12-02T08:51:49Z</time>
      </trkpt>
      <trkpt lat="45.31362" lon="5.8798">
        <ele>1111.4470214844</ele>
        <time>2017-12-02T08:51:56Z</time>
      </trkpt>
      <trkpt lat="45.31362" lon="5.87973">
        <ele>1109.4470214844</ele>
        <time>2017-12-02T08:52:00Z</time>
      </trkpt>
      <trkpt lat="45.31358" lon="5.87969">
        <ele>1115.4470214844</ele>
        <time>2017-12-02T08:52:05Z</time>
      </trkpt>
      <trkpt lat="45.31362" lon="5.87963">
        <ele>1117.4470214844</ele>
        <time>2017-12-02T08:52:09Z</time>
      </trkpt>
      <trkpt lat="45.31363" lon="5.87956">
        <ele>1123.4470214844</ele>
        <time>2017-12-02T08:52:20Z</time>
      </trkpt>
      <trkpt lat="45.31367" lon="5.87949">
        <ele>1123.4470214844</ele>
        <time>2017-12-02T08:52:25Z</time>
      </trkpt>
      <trkpt lat="45.3137" lon="5.87944">
        <ele>1124.4470214844</ele>
        <time>2017-12-02T08:52:30Z</time>
      </trkpt>
      <trkpt lat="45.31371" lon="5.87936">
        <ele>1126.4470214844</ele>
        <time>2017-12-02T08:52:39Z</time>
      </trkpt>
      <trkpt lat="45.31376" lon="5.87932">
        <ele>1130.4470214844</ele>
        <time>2017-12-02T08:52:45Z</time>
      </trkpt>
      <trkpt lat="45.31379" lon="5.87927">
        <ele>1131.4470214844</ele>
        <time>2017-12-02T08:52:48Z</time>
      </trkpt>
      <trkpt lat="45.31381" lon="5.87919">
        <ele>1130.4470214844</ele>
        <time>2017-12-02T08:52:52Z</time>
      </trkpt>
      <trkpt lat="45.31378" lon="5.87914">
        <ele>1133.4470214844</ele>
        <time>2017-12-02T08:53:01Z</time>
      </trkpt>
      <trkpt lat="45.31374" lon="5.87909">
        <ele>1135.4470214844</ele>
        <time>2017-12-02T08:53:08Z</time>
      </trkpt>
      <trkpt lat="45.31371" lon="5.87904">
        <ele>1138.4460449219</ele>
        <time>2017-12-02T08:53:12Z</time>
      </trkpt>
      <trkpt lat="45.31371" lon="5.87896">
        <ele>1139.4460449219</ele>
        <time>2017-12-02T08:53:19Z</time>
      </trkpt>
      <trkpt lat="45.3137" lon="5.87889">
        <ele>1146.4460449219</ele>
        <time>2017-12-02T08:53:37Z</time>
      </trkpt>
      <trkpt lat="45.31371" lon="5.87882">
        <ele>1150.4460449219</ele>
        <time>2017-12-02T08:53:44Z</time>
      </trkpt>
      <trkpt lat="45.31368" lon="5.87877">
        <ele>1149.4460449219</ele>
        <time>2017-12-02T08:53:48Z</time>
      </trkpt>
      <trkpt lat="45.31368" lon="5.8787">
        <ele>1150.4460449219</ele>
        <time>2017-12-02T08:53:53Z</time>
      </trkpt>
      <trkpt lat="45.31369" lon="5.87864">
        <ele>1151.4460449219</ele>
        <time>2017-12-02T08:53:59Z</time>
      </trkpt>
      <trkpt lat="45.3137" lon="5.87857">
        <ele>1150.4460449219</ele>
        <time>2017-12-02T08:54:05Z</time>
      </trkpt>
      <trkpt lat="45.31371" lon="5.87849">
        <ele>1152.4460449219</ele>
        <time>2017-12-02T08:54:10Z</time>
      </trkpt>
      <trkpt lat="45.31371" lon="5.87842">
        <ele>1153.4460449219</ele>
        <time>2017-12-02T08:54:16Z</time>
      </trkpt>
      <trkpt lat="45.31374" lon="5.87835">
        <ele>1156.4460449219</ele>
        <time>2017-12-02T08:54:24Z</time>
      </trkpt>
      <trkpt lat="45.31375" lon="5.87829">
        <ele>1158.4460449219</ele>
        <time>2017-12-02T08:54:28Z</time>
      </trkpt>
      <trkpt lat="45.31376" lon="5.87822">
        <ele>1159.4460449219</ele>
        <time>2017-12-02T08:54:35Z</time>
      </trkpt>
      <trkpt lat="45.31376" lon="5.87815">
        <ele>1161.4460449219</ele>
        <time>2017-12-02T08:54:41Z</time>
      </trkpt>
      <trkpt lat="45.31377" lon="5.87809">
        <ele>1163.4460449219</ele>
        <time>2017-12-02T08:54:46Z</time>
      </trkpt>
      <trkpt lat="45.31375" lon="5.87803">
        <ele>1165.4460449219</ele>
        <time>2017-12-02T08:54:53Z</time>
      </trkpt>
      <trkpt lat="45.31374" lon="5.87796">
        <ele>1171.4460449219</ele>
        <time>2017-12-02T08:55:02Z</time>
      </trkpt>
      <trkpt lat="45.31377" lon="5.87788">
        <ele>1173.4460449219</ele>
        <time>2017-12-02T08:55:06Z</time>
      </trkpt>
      <trkpt lat="45.31377" lon="5.87781">
        <ele>1177.4460449219</ele>
        <time>2017-12-02T08:55:13Z</time>
      </trkpt>
      <trkpt lat="45.31377" lon="5.87774">
        <ele>1175.4460449219</ele>
        <time>2017-12-02T08:55:18Z</time>
      </trkpt>
      <trkpt lat="45.31376" lon="5.87766">
        <ele>1175.4460449219</ele>
        <time>2017-12-02T08:55:23Z</time>
      </trkpt>
      <trkpt lat="45.31374" lon="5.8776">
        <ele>1176.4460449219</ele>
        <time>2017-12-02T08:55:29Z</time>
      </trkpt>
      <trkpt lat="45.31373" lon="5.87753">
        <ele>1176.4460449219</ele>
        <time>2017-12-02T08:55:34Z</time>
      </trkpt>
      <trkpt lat="45.31371" lon="5.87746">
        <ele>1178.4460449219</ele>
        <time>2017-12-02T08:55:40Z</time>
      </trkpt>
      <trkpt lat="45.3137" lon="5.8774">
        <ele>1182.4460449219</ele>
        <time>2017-12-02T08:55:47Z</time>
      </trkpt>
      <trkpt lat="45.3137" lon="5.87733">
        <ele>1181.4460449219</ele>
        <time>2017-12-02T08:55:52Z</time>
      </trkpt>
      <trkpt lat="45.31371" lon="5.87726">
        <ele>1183.4460449219</ele>
        <time>2017-12-02T08:55:57Z</time>
      </trkpt>
      <trkpt lat="45.31367" lon="5.87723">
        <ele>1185.4460449219</ele>
        <time>2017-12-02T08:56:03Z</time>
      </trkpt>
      <trkpt lat="45.31368" lon="5.87716">
        <ele>1183.4460449219</ele>
        <time>2017-12-02T08:56:07Z</time>
      </trkpt>
      <trkpt lat="45.31367" lon="5.87709">
        <ele>1186.4460449219</ele>
        <time>2017-12-02T08:56:13Z</time>
      </trkpt>
      <trkpt lat="45.3137" lon="5.87701">
        <ele>1187.4460449219</ele>
        <time>2017-12-02T08:56:20Z</time>
      </trkpt>
      <trkpt lat="45.31372" lon="5.87695">
        <ele>1186.4460449219</ele>
        <time>2017-12-02T08:56:25Z</time>
      </trkpt>
      <trkpt lat="45.31374" lon="5.87688">
        <ele>1192.4460449219</ele>
        <time>2017-12-02T08:56:35Z</time>
      </trkpt>
      <trkpt lat="45.31375" lon="5.87681">
        <ele>1193.4460449219</ele>
        <time>2017-12-02T08:56:41Z</time>
      </trkpt>
      <trkpt lat="45.31377" lon="5.87675">
        <ele>1192.4460449219</ele>
        <time>2017-12-02T08:56:46Z</time>
      </trkpt>
      <trkpt lat="45.31371" lon="5.87674">
        <ele>1194.4460449219</ele>
        <time>2017-12-02T08:56:50Z</time>
      </trkpt>
      <trkpt lat="45.31366" lon="5.87673">
        <ele>1198.4460449219</ele>
        <time>2017-12-02T08:56:58Z</time>
      </trkpt>
      <trkpt lat="45.31364" lon="5.87667">
        <ele>1199.4460449219</ele>
        <time>2017-12-02T08:57:07Z</time>
      </trkpt>
      <trkpt lat="45.31361" lon="5.87661">
        <ele>1200.4460449219</ele>
        <time>2017-12-02T08:57:13Z</time>
      </trkpt>
      <trkpt lat="45.31362" lon="5.87654">
        <ele>1205.4460449219</ele>
        <time>2017-12-02T08:57:25Z</time>
      </trkpt>
      <trkpt lat="45.31363" lon="5.87647">
        <ele>1210.4460449219</ele>
        <time>2017-12-02T08:57:35Z</time>
      </trkpt>
      <trkpt lat="45.31365" lon="5.8764">
        <ele>1212.4460449219</ele>
        <time>2017-12-02T08:57:42Z</time>
      </trkpt>
      <trkpt lat="45.31368" lon="5.87633">
        <ele>1214.4460449219</ele>
        <time>2017-12-02T08:57:48Z</time>
      </trkpt>
      <trkpt lat="45.31371" lon="5.87628">
        <ele>1214.4460449219</ele>
        <time>2017-12-02T08:57:53Z</time>
      </trkpt>
      <trkpt lat="45.31373" lon="5.87621">
        <ele>1215.4460449219</ele>
        <time>2017-12-02T08:57:59Z</time>
      </trkpt>
      <trkpt lat="45.31368" lon="5.87619">
        <ele>1218.4460449219</ele>
        <time>2017-12-02T08:58:05Z</time>
      </trkpt>
      <trkpt lat="45.31364" lon="5.87616">
        <ele>1220.4460449219</ele>
        <time>2017-12-02T08:58:12Z</time>
      </trkpt>
      <trkpt lat="45.31358" lon="5.87617">
        <ele>1223.4460449219</ele>
        <time>2017-12-02T08:58:17Z</time>
      </trkpt>
      <trkpt lat="45.31356" lon="5.87608">
        <ele>1225.4460449219</ele>
        <time>2017-12-02T08:58:25Z</time>
      </trkpt>
      <trkpt lat="45.31354" lon="5.87602">
        <ele>1225.4460449219</ele>
        <time>2017-12-02T08:58:31Z</time>
      </trkpt>
      <trkpt lat="45.31357" lon="5.87595">
        <ele>1225.4460449219</ele>
        <time>2017-12-02T08:58:38Z</time>
      </trkpt>
      <trkpt lat="45.3136" lon="5.8759">
        <ele>1228.4460449219</ele>
        <time>2017-12-02T08:58:43Z</time>
      </trkpt>
      <trkpt lat="45.31356" lon="5.87585">
        <ele>1228.4460449219</ele>
        <time>2017-12-02T08:58:48Z</time>
      </trkpt>
      <trkpt lat="45.31352" lon="5.8758">
        <ele>1228.4460449219</ele>
        <time>2017-12-02T08:58:54Z</time>
      </trkpt>
      <trkpt lat="45.31353" lon="5.87573">
        <ele>1230.4460449219</ele>
        <time>2017-12-02T08:58:59Z</time>
      </trkpt>
      <trkpt lat="45.31348" lon="5.87574">
        <ele>1231.4460449219</ele>
        <time>2017-12-02T08:59:02Z</time>
      </trkpt>
      <trkpt lat="45.31349" lon="5.87566">
        <ele>1233.4460449219</ele>
        <time>2017-12-02T08:59:07Z</time>
      </trkpt>
      <trkpt lat="45.31345" lon="5.87563">
        <ele>1236.4460449219</ele>
        <time>2017-12-02T08:59:13Z</time>
      </trkpt>
      <trkpt lat="45.31341" lon="5.87557">
        <ele>1238.4460449219</ele>
        <time>2017-12-02T08:59:21Z</time>
      </trkpt>
      <trkpt lat="45.31344" lon="5.87548">
        <ele>1240.4460449219</ele>
        <time>2017-12-02T08:59:28Z</time>
      </trkpt>
      <trkpt lat="45.31346" lon="5.87542">
        <ele>1239.4460449219</ele>
        <time>2017-12-02T08:59:33Z</time>
      </trkpt>
      <trkpt lat="45.31341" lon="5.8754">
        <ele>1240.4460449219</ele>
        <time>2017-12-02T08:59:39Z</time>
      </trkpt>
      <trkpt lat="45.31338" lon="5.87536">
        <ele>1241.4460449219</ele>
        <time>2017-12-02T08:59:44Z</time>
      </trkpt>
      <trkpt lat="45.31341" lon="5.87529">
        <ele>1244.4460449219</ele>
        <time>2017-12-02T08:59:57Z</time>
      </trkpt>
      <trkpt lat="45.31343" lon="5.87523">
        <ele>1246.4460449219</ele>
        <time>2017-12-02T09:00:01Z</time>
      </trkpt>
      <trkpt lat="45.31343" lon="5.87517">
        <ele>1247.4460449219</ele>
        <time>2017-12-02T09:00:08Z</time>
      </trkpt>
      <trkpt lat="45.3134" lon="5.87511">
        <ele>1252.4460449219</ele>
        <time>2017-12-02T09:00:17Z</time>
      </trkpt>
      <trkpt lat="45.31341" lon="5.87505">
        <ele>1252.4460449219</ele>
        <time>2017-12-02T09:00:21Z</time>
      </trkpt>
      <trkpt lat="45.31336" lon="5.875">
        <ele>1252.4460449219</ele>
        <time>2017-12-02T09:00:26Z</time>
      </trkpt>
      <trkpt lat="45.31335" lon="5.87494">
        <ele>1254.4460449219</ele>
        <time>2017-12-02T09:00:32Z</time>
      </trkpt>
      <trkpt lat="45.31338" lon="5.87487">
        <ele>1255.4460449219</ele>
        <time>2017-12-02T09:00:38Z</time>
      </trkpt>
      <trkpt lat="45.3134" lon="5.87482">
        <ele>1256.4460449219</ele>
        <time>2017-12-02T09:00:45Z</time>
      </trkpt>
      <trkpt lat="45.31342" lon="5.87476">
        <ele>1255.4460449219</ele>
        <time>2017-12-02T09:00:49Z</time>
      </trkpt>
      <trkpt lat="45.3134" lon="5.8747">
        <ele>1258.4460449219</ele>
        <time>2017-12-02T09:01:04Z</time>
      </trkpt>
      <trkpt lat="45.31339" lon="5.87463">
        <ele>1261.4460449219</ele>
        <time>2017-12-02T09:01:08Z</time>
      </trkpt>
      <trkpt lat="45.31335" lon="5.87458">
        <ele>1267.4460449219</ele>
        <time>2017-12-02T09:01:16Z</time>
      </trkpt>
      <trkpt lat="45.31331" lon="5.87454">
        <ele>1271.4460449219</ele>
        <time>2017-12-02T09:01:22Z</time>
      </trkpt>
      <trkpt lat="45.31327" lon="5.87449">
        <ele>1274.4460449219</ele>
        <time>2017-12-02T09:01:28Z</time>
      </trkpt>
      <trkpt lat="45.31325" lon="5.87442">
        <ele>1274.4460449219</ele>
        <time>2017-12-02T09:01:34Z</time>
      </trkpt>
      <trkpt lat="45.31323" lon="5.87436">
        <ele>1277.4460449219</ele>
        <time>2017-12-02T09:01:40Z</time>
      </trkpt>
      <trkpt lat="45.3132" lon="5.8743">
        <ele>1279.4460449219</ele>
        <time>2017-12-02T09:01:46Z</time>
      </trkpt>
      <trkpt lat="45.31321" lon="5.87423">
        <ele>1279.4460449219</ele>
        <time>2017-12-02T09:01:51Z</time>
      </trkpt>
      <trkpt lat="45.3132" lon="5.87416">
        <ele>1281.4460449219</ele>
        <time>2017-12-02T09:01:59Z</time>
      </trkpt>
      <trkpt lat="45.31322" lon="5.87408">
        <ele>1281.4460449219</ele>
        <time>2017-12-02T09:02:04Z</time>
      </trkpt>
      <trkpt lat="45.31322" lon="5.87401">
        <ele>1281.4460449219</ele>
        <time>2017-12-02T09:02:08Z</time>
      </trkpt>
      <trkpt lat="45.31324" lon="5.87394">
        <ele>1281.4460449219</ele>
        <time>2017-12-02T09:02:12Z</time>
      </trkpt>
      <trkpt lat="45.31326" lon="5.87388">
        <ele>1283.4460449219</ele>
        <time>2017-12-02T09:02:17Z</time>
      </trkpt>
      <trkpt lat="45.31324" lon="5.87382">
        <ele>1283.4460449219</ele>
        <time>2017-12-02T09:02:22Z</time>
      </trkpt>
      <trkpt lat="45.31326" lon="5.87376">
        <ele>1283.4460449219</ele>
        <time>2017-12-02T09:02:25Z</time>
      </trkpt>
      <trkpt lat="45.31329" lon="5.8737">
        <ele>1286.4460449219</ele>
        <time>2017-12-02T09:02:29Z</time>
      </trkpt>
      <trkpt lat="45.3133" lon="5.87363">
        <ele>1285.4460449219</ele>
        <time>2017-12-02T09:02:39Z</time>
      </trkpt>
      <trkpt lat="45.3133" lon="5.87356">
        <ele>1285.4460449219</ele>
        <time>2017-12-02T09:02:41Z</time>
      </trkpt>
      <trkpt lat="45.31333" lon="5.87349">
        <ele>1289.4460449219</ele>
        <time>2017-12-02T09:02:44Z</time>
      </trkpt>
      <trkpt lat="45.31334" lon="5.87342">
        <ele>1290.4460449219</ele>
        <time>2017-12-02T09:02:47Z</time>
      </trkpt>
      <trkpt lat="45.31336" lon="5.87336">
        <ele>1292.4460449219</ele>
        <time>2017-12-02T09:02:51Z</time>
      </trkpt>
      <trkpt lat="45.31338" lon="5.87329">
        <ele>1297.4460449219</ele>
        <time>2017-12-02T09:02:57Z</time>
      </trkpt>
      <trkpt lat="45.31335" lon="5.87323">
        <ele>1299.4460449219</ele>
        <time>2017-12-02T09:03:02Z</time>
      </trkpt>
      <trkpt lat="45.31338" lon="5.87317">
        <ele>1301.4460449219</ele>
        <time>2017-12-02T09:03:05Z</time>
      </trkpt>
      <trkpt lat="45.31333" lon="5.87315">
        <ele>1301.4460449219</ele>
        <time>2017-12-02T09:03:09Z</time>
      </trkpt>
      <trkpt lat="45.31334" lon="5.87308">
        <ele>1301.4460449219</ele>
        <time>2017-12-02T09:03:13Z</time>
      </trkpt>
      <trkpt lat="45.31335" lon="5.87299">
        <ele>1302.4460449219</ele>
        <time>2017-12-02T09:03:18Z</time>
      </trkpt>
      <trkpt lat="45.31336" lon="5.87292">
        <ele>1305.4460449219</ele>
        <time>2017-12-02T09:03:24Z</time>
      </trkpt>
      <trkpt lat="45.31337" lon="5.87284">
        <ele>1305.4460449219</ele>
        <time>2017-12-02T09:03:28Z</time>
      </trkpt>
      <trkpt lat="45.3134" lon="5.87277">
        <ele>1307.4460449219</ele>
        <time>2017-12-02T09:03:32Z</time>
      </trkpt>
      <trkpt lat="45.31341" lon="5.8727">
        <ele>1312.4460449219</ele>
        <time>2017-12-02T09:03:40Z</time>
      </trkpt>
      <trkpt lat="45.31338" lon="5.87265">
        <ele>1312.4460449219</ele>
        <time>2017-12-02T09:03:45Z</time>
      </trkpt>
      <trkpt lat="45.31332" lon="5.87264">
        <ele>1314.4460449219</ele>
        <time>2017-12-02T09:03:50Z</time>
      </trkpt>
      <trkpt lat="45.31334" lon="5.87258">
        <ele>1315.4460449219</ele>
        <time>2017-12-02T09:03:54Z</time>
      </trkpt>
      <trkpt lat="45.31339" lon="5.87251">
        <ele>1316.4460449219</ele>
        <time>2017-12-02T09:03:57Z</time>
      </trkpt>
      <trkpt lat="45.3134" lon="5.87244">
        <ele>1315.4460449219</ele>
        <time>2017-12-02T09:04:01Z</time>
      </trkpt>
      <trkpt lat="45.31343" lon="5.87237">
        <ele>1317.4460449219</ele>
        <time>2017-12-02T09:04:05Z</time>
      </trkpt>
      <trkpt lat="45.31346" lon="5.87231">
        <ele>1317.4460449219</ele>
        <time>2017-12-02T09:04:11Z</time>
      </trkpt>
      <trkpt lat="45.31348" lon="5.87224">
        <ele>1321.4460449219</ele>
        <time>2017-12-02T09:04:20Z</time>
      </trkpt>
      <trkpt lat="45.31354" lon="5.87222">
        <ele>1323.4460449219</ele>
        <time>2017-12-02T09:04:33Z</time>
      </trkpt>
      <trkpt lat="45.3136" lon="5.8722">
        <ele>1322.4460449219</ele>
        <time>2017-12-02T09:04:35Z</time>
      </trkpt>
      <trkpt lat="45.31364" lon="5.87223">
        <ele>1323.4460449219</ele>
        <time>2017-12-02T09:04:39Z</time>
      </trkpt>
      <trkpt lat="45.31366" lon="5.87217">
        <ele>1324.4460449219</ele>
        <time>2017-12-02T09:04:44Z</time>
      </trkpt>
      <trkpt lat="45.31365" lon="5.87209">
        <ele>1326.4460449219</ele>
        <time>2017-12-02T09:04:50Z</time>
      </trkpt>
      <trkpt lat="45.31369" lon="5.87206">
        <ele>1326.4460449219</ele>
        <time>2017-12-02T09:06:32Z</time>
      </trkpt>
      <trkpt lat="45.31375" lon="5.87204">
        <ele>1324.4460449219</ele>
        <time>2017-12-02T09:08:32Z</time>
      </trkpt>
      <trkpt lat="45.31382" lon="5.87203">
        <ele>1323.4460449219</ele>
        <time>2017-12-02T09:08:34Z</time>
      </trkpt>
      <trkpt lat="45.31389" lon="5.87203">
        <ele>1322.4460449219</ele>
        <time>2017-12-02T09:08:37Z</time>
      </trkpt>
      <trkpt lat="45.31401" lon="5.87202">
        <ele>1317.4460449219</ele>
        <time>2017-12-02T09:08:39Z</time>
      </trkpt>
      <trkpt lat="45.31412" lon="5.87207">
        <ele>1315.4460449219</ele>
        <time>2017-12-02T09:08:41Z</time>
      </trkpt>
      <trkpt lat="45.3141" lon="5.87218">
        <ele>1313.4460449219</ele>
        <time>2017-12-02T09:08:43Z</time>
      </trkpt>
      <trkpt lat="45.31402" lon="5.87246">
        <ele>1311.4460449219</ele>
        <time>2017-12-02T09:08:44Z</time>
      </trkpt>
      <trkpt lat="45.31403" lon="5.87265">
        <ele>1307.4460449219</ele>
        <time>2017-12-02T09:08:45Z</time>
      </trkpt>
      <trkpt lat="45.31406" lon="5.87283">
        <ele>1303.4460449219</ele>
        <time>2017-12-02T09:08:47Z</time>
      </trkpt>
      <trkpt lat="45.3142" lon="5.87298">
        <ele>1299.4460449219</ele>
        <time>2017-12-02T09:08:49Z</time>
      </trkpt>
      <trkpt lat="45.31427" lon="5.8732">
        <ele>1296.4460449219</ele>
        <time>2017-12-02T09:08:51Z</time>
      </trkpt>
      <trkpt lat="45.31427" lon="5.87336">
        <ele>1286.4460449219</ele>
        <time>2017-12-02T09:08:53Z</time>
      </trkpt>
      <trkpt lat="45.3143" lon="5.87358">
        <ele>1280.4460449219</ele>
        <time>2017-12-02T09:08:55Z</time>
      </trkpt>
      <trkpt lat="45.3143" lon="5.8737">
        <ele>1279.4460449219</ele>
        <time>2017-12-02T09:08:56Z</time>
      </trkpt>
      <trkpt lat="45.31435" lon="5.87388">
        <ele>1269.4460449219</ele>
        <time>2017-12-02T09:08:58Z</time>
      </trkpt>
      <trkpt lat="45.3144" lon="5.87414">
        <ele>1268.4460449219</ele>
        <time>2017-12-02T09:09:00Z</time>
      </trkpt>
      <trkpt lat="45.31447" lon="5.87434">
        <ele>1264.4460449219</ele>
        <time>2017-12-02T09:09:02Z</time>
      </trkpt>
      <trkpt lat="45.31453" lon="5.87461">
        <ele>1261.4460449219</ele>
        <time>2017-12-02T09:09:04Z</time>
      </trkpt>
      <trkpt lat="45.31447" lon="5.87486">
        <ele>1257.4460449219</ele>
        <time>2017-12-02T09:09:06Z</time>
      </trkpt>
      <trkpt lat="45.31445" lon="5.87503">
        <ele>1255.4460449219</ele>
        <time>2017-12-02T09:09:08Z</time>
      </trkpt>
      <trkpt lat="45.31451" lon="5.87519">
        <ele>1251.4460449219</ele>
        <time>2017-12-02T09:09:10Z</time>
      </trkpt>
      <trkpt lat="45.31456" lon="5.87539">
        <ele>1245.4460449219</ele>
        <time>2017-12-02T09:09:12Z</time>
      </trkpt>
      <trkpt lat="45.31452" lon="5.8755">
        <ele>1243.4460449219</ele>
        <time>2017-12-02T09:09:13Z</time>
      </trkpt>
      <trkpt lat="45.31456" lon="5.87567">
        <ele>1235.4460449219</ele>
        <time>2017-12-02T09:09:15Z</time>
      </trkpt>
      <trkpt lat="45.31465" lon="5.87593">
        <ele>1229.4460449219</ele>
        <time>2017-12-02T09:09:17Z</time>
      </trkpt>
      <trkpt lat="45.3147" lon="5.87623">
        <ele>1227.4460449219</ele>
        <time>2017-12-02T09:09:19Z</time>
      </trkpt>
      <trkpt lat="45.31475" lon="5.87648">
        <ele>1222.4460449219</ele>
        <time>2017-12-02T09:09:21Z</time>
      </trkpt>
      <trkpt lat="45.31478" lon="5.87657">
        <ele>1216.4460449219</ele>
        <time>2017-12-02T09:09:22Z</time>
      </trkpt>
      <trkpt lat="45.31476" lon="5.8768">
        <ele>1208.4460449219</ele>
        <time>2017-12-02T09:09:24Z</time>
      </trkpt>
      <trkpt lat="45.31472" lon="5.87708">
        <ele>1203.4460449219</ele>
        <time>2017-12-02T09:09:26Z</time>
      </trkpt>
      <trkpt lat="45.31472" lon="5.87737">
        <ele>1197.4460449219</ele>
        <time>2017-12-02T09:09:28Z</time>
      </trkpt>
      <trkpt lat="45.31468" lon="5.87749">
        <ele>1189.4460449219</ele>
        <time>2017-12-02T09:09:30Z</time>
      </trkpt>
      <trkpt lat="45.31474" lon="5.87775">
        <ele>1186.4470214844</ele>
        <time>2017-12-02T09:09:32Z</time>
      </trkpt>
      <trkpt lat="45.3148" lon="5.87803">
        <ele>1179.4470214844</ele>
        <time>2017-12-02T09:09:34Z</time>
      </trkpt>
      <trkpt lat="45.31491" lon="5.87824">
        <ele>1171.4470214844</ele>
        <time>2017-12-02T09:09:36Z</time>
      </trkpt>
      <trkpt lat="45.31488" lon="5.87851">
        <ele>1166.4470214844</ele>
        <time>2017-12-02T09:09:38Z</time>
      </trkpt>
      <trkpt lat="45.31489" lon="5.87861">
        <ele>1162.4470214844</ele>
        <time>2017-12-02T09:09:39Z</time>
      </trkpt>
      <trkpt lat="45.31491" lon="5.87885">
        <ele>1150.4470214844</ele>
        <time>2017-12-02T09:09:41Z</time>
      </trkpt>
      <trkpt lat="45.315" lon="5.87908">
        <ele>1141.4470214844</ele>
        <time>2017-12-02T09:09:43Z</time>
      </trkpt>
      <trkpt lat="45.31508" lon="5.87937">
        <ele>1137.4470214844</ele>
        <time>2017-12-02T09:09:45Z</time>
      </trkpt>
      <trkpt lat="45.31513" lon="5.87973">
        <ele>1133.4470214844</ele>
        <time>2017-12-02T09:09:47Z</time>
      </trkpt>
      <trkpt lat="45.31516" lon="5.87981">
        <ele>1130.4470214844</ele>
        <time>2017-12-02T09:09:48Z</time>
      </trkpt>
      <trkpt lat="45.31525" lon="5.88003">
        <ele>1118.4470214844</ele>
        <time>2017-12-02T09:09:50Z</time>
      </trkpt>
      <trkpt lat="45.31533" lon="5.8803">
        <ele>1112.4470214844</ele>
        <time>2017-12-02T09:09:52Z</time>
      </trkpt>
      <trkpt lat="45.3154" lon="5.88045">
        <ele>1100.4470214844</ele>
        <time>2017-12-02T09:09:54Z</time>
      </trkpt>
      <trkpt lat="45.31544" lon="5.88076">
        <ele>1096.4470214844</ele>
        <time>2017-12-02T09:09:56Z</time>
      </trkpt>
      <trkpt lat="45.31551" lon="5.88117">
        <ele>1094.4470214844</ele>
        <time>2017-12-02T09:09:58Z</time>
      </trkpt>
      <trkpt lat="45.31555" lon="5.88161">
        <ele>1093.4470214844</ele>
        <time>2017-12-02T09:10:00Z</time>
      </trkpt>
      <trkpt lat="45.31553" lon="5.88168">
        <ele>1087.4470214844</ele>
        <time>2017-12-02T09:10:01Z</time>
      </trkpt>
      <trkpt lat="45.31561" lon="5.88205">
        <ele>1083.4470214844</ele>
        <time>2017-12-02T09:10:03Z</time>
      </trkpt>
      <trkpt lat="45.31562" lon="5.88231">
        <ele>1080.4470214844</ele>
        <time>2017-12-02T09:10:05Z</time>
      </trkpt>
      <trkpt lat="45.31562" lon="5.88246">
        <ele>1078.4470214844</ele>
        <time>2017-12-02T09:10:06Z</time>
      </trkpt>
      <trkpt lat="45.31561" lon="5.88258">
        <ele>1076.4470214844</ele>
        <time>2017-12-02T09:10:07Z</time>
      </trkpt>
      <trkpt lat="45.3156" lon="5.88283">
        <ele>1073.4470214844</ele>
        <time>2017-12-02T09:10:09Z</time>
      </trkpt>
      <trkpt lat="45.31554" lon="5.88272">
        <ele>1061.4470214844</ele>
        <time>2017-12-02T09:10:10Z</time>
      </trkpt>
      <trkpt lat="45.31547" lon="5.88286">
        <ele>1054.4470214844</ele>
        <time>2017-12-02T09:10:12Z</time>
      </trkpt>
      <trkpt lat="45.31542" lon="5.8829">
        <ele>1048.4470214844</ele>
        <time>2017-12-02T09:10:13Z</time>
      </trkpt>
      <trkpt lat="45.31536" lon="5.88308">
        <ele>1043.4470214844</ele>
        <time>2017-12-02T09:10:15Z</time>
      </trkpt>
      <trkpt lat="45.31525" lon="5.88325">
        <ele>1034.4470214844</ele>
        <time>2017-12-02T09:10:17Z</time>
      </trkpt>
      <trkpt lat="45.31518" lon="5.88345">
        <ele>1029.4470214844</ele>
        <time>2017-12-02T09:10:19Z</time>
      </trkpt>
      <trkpt lat="45.31508" lon="5.88366">
        <ele>1021.4470214844</ele>
        <time>2017-12-02T09:10:21Z</time>
      </trkpt>
      <trkpt lat="45.31497" lon="5.88383">
        <ele>1013.4470214844</ele>
        <time>2017-12-02T09:10:23Z</time>
      </trkpt>
      <trkpt lat="45.31485" lon="5.884">
        <ele>1006.4470214844</ele>
        <time>2017-12-02T09:10:25Z</time>
      </trkpt>
      <trkpt lat="45.31472" lon="5.8842">
        <ele>1001.4470214844</ele>
        <time>2017-12-02T09:10:27Z</time>
      </trkpt>
      <trkpt lat="45.31463" lon="5.88442">
        <ele>997.44702148438</ele>
        <time>2017-12-02T09:10:29Z</time>
      </trkpt>
      <trkpt lat="45.31456" lon="5.88462">
        <ele>993.44702148438</ele>
        <time>2017-12-02T09:10:31Z</time>
      </trkpt>
      <trkpt lat="45.31446" lon="5.88477">
        <ele>990.44702148438</ele>
        <time>2017-12-02T09:10:33Z</time>
      </trkpt>
      <trkpt lat="45.31434" lon="5.88487">
        <ele>988.44702148438</ele>
        <time>2017-12-02T09:10:35Z</time>
      </trkpt>
      <trkpt lat="45.31427" lon="5.88492">
        <ele>987.44702148438</ele>
        <time>2017-12-02T09:10:36Z</time>
      </trkpt>
      <trkpt lat="45.31416" lon="5.88504">
        <ele>985.44702148438</ele>
        <time>2017-12-02T09:10:38Z</time>
      </trkpt>
      <trkpt lat="45.31413" lon="5.88514">
        <ele>985.44702148438</ele>
        <time>2017-12-02T09:10:39Z</time>
      </trkpt>
      <trkpt lat="45.31406" lon="5.88534">
        <ele>984.44702148438</ele>
        <time>2017-12-02T09:10:41Z</time>
      </trkpt>
      <trkpt lat="45.31397" lon="5.88549">
        <ele>981.44702148438</ele>
        <time>2017-12-02T09:10:43Z</time>
      </trkpt>
      <trkpt lat="45.31383" lon="5.88562">
        <ele>979.44702148438</ele>
        <time>2017-12-02T09:10:45Z</time>
      </trkpt>
      <trkpt lat="45.31378" lon="5.88548">
        <ele>976.44702148438</ele>
        <time>2017-12-02T09:10:47Z</time>
      </trkpt>
      <trkpt lat="45.31377" lon="5.88538">
        <ele>974.44702148438</ele>
        <time>2017-12-02T09:10:49Z</time>
      </trkpt>
      <trkpt lat="45.31376" lon="5.8853">
        <ele>971.44702148438</ele>
        <time>2017-12-02T09:10:53Z</time>
      </trkpt>
      <trkpt lat="45.31381" lon="5.88528">
        <ele>967.44702148438</ele>
        <time>2017-12-02T09:11:12Z</time>
      </trkpt>
      <trkpt lat="45.31378" lon="5.88522">
        <ele>964.44702148438</ele>
        <time>2017-12-02T09:13:30Z</time>
      </trkpt>
      <trkpt lat="45.31379" lon="5.88515">
        <ele>962.44702148438</ele>
        <time>2017-12-02T09:14:35Z</time>
      </trkpt>
      <trkpt lat="45.31378" lon="5.88508">
        <ele>965.44702148438</ele>
        <time>2017-12-02T09:14:39Z</time>
      </trkpt>
      <trkpt lat="45.31376" lon="5.88499">
        <ele>964.44702148438</ele>
        <time>2017-12-02T09:14:42Z</time>
      </trkpt>
      <trkpt lat="45.31376" lon="5.8849">
        <ele>965.44702148438</ele>
        <time>2017-12-02T09:14:45Z</time>
      </trkpt>
      <trkpt lat="45.31374" lon="5.88484">
        <ele>965.44702148438</ele>
        <time>2017-12-02T09:14:49Z</time>
      </trkpt>
      <trkpt lat="45.31375" lon="5.88477">
        <ele>966.44702148438</ele>
        <time>2017-12-02T09:14:52Z</time>
      </trkpt>
      <trkpt lat="45.31374" lon="5.8847">
        <ele>968.44702148438</ele>
        <time>2017-12-02T09:14:57Z</time>
      </trkpt>
      <trkpt lat="45.31375" lon="5.88462">
        <ele>968.44702148438</ele>
        <time>2017-12-02T09:15:01Z</time>
      </trkpt>
      <trkpt lat="45.31374" lon="5.88455">
        <ele>969.44702148438</ele>
        <time>2017-12-02T09:15:05Z</time>
      </trkpt>
      <trkpt lat="45.31374" lon="5.88447">
        <ele>972.44702148438</ele>
        <time>2017-12-02T09:15:10Z</time>
      </trkpt>
      <trkpt lat="45.31374" lon="5.88438">
        <ele>976.44702148438</ele>
        <time>2017-12-02T09:15:16Z</time>
      </trkpt>
      <trkpt lat="45.31373" lon="5.88431">
        <ele>974.44702148438</ele>
        <time>2017-12-02T09:15:21Z</time>
      </trkpt>
      <trkpt lat="45.31374" lon="5.88424">
        <ele>975.44702148438</ele>
        <time>2017-12-02T09:15:24Z</time>
      </trkpt>
      <trkpt lat="45.31375" lon="5.88416">
        <ele>976.44702148438</ele>
        <time>2017-12-02T09:15:29Z</time>
      </trkpt>
      <trkpt lat="45.31375" lon="5.88408">
        <ele>981.44702148438</ele>
        <time>2017-12-02T09:15:32Z</time>
      </trkpt>
      <trkpt lat="45.31375" lon="5.88401">
        <ele>984.44702148438</ele>
        <time>2017-12-02T09:15:36Z</time>
      </trkpt>
      <trkpt lat="45.3137" lon="5.88391">
        <ele>981.44702148438</ele>
        <time>2017-12-02T09:15:41Z</time>
      </trkpt>
      <trkpt lat="45.31371" lon="5.88383">
        <ele>982.44702148438</ele>
        <time>2017-12-02T09:15:46Z</time>
      </trkpt>
      <trkpt lat="45.31372" lon="5.88376">
        <ele>984.44702148438</ele>
        <time>2017-12-02T09:15:49Z</time>
      </trkpt>
      <trkpt lat="45.31373" lon="5.88369">
        <ele>985.44702148438</ele>
        <time>2017-12-02T09:15:52Z</time>
      </trkpt>
      <trkpt lat="45.31377" lon="5.88364">
        <ele>987.44702148438</ele>
        <time>2017-12-02T09:15:55Z</time>
      </trkpt>
      <trkpt lat="45.3138" lon="5.88358">
        <ele>991.44702148438</ele>
        <time>2017-12-02T09:16:01Z</time>
      </trkpt>
      <trkpt lat="45.31382" lon="5.88349">
        <ele>994.44702148438</ele>
        <time>2017-12-02T09:16:05Z</time>
      </trkpt>
      <trkpt lat="45.31385" lon="5.88344">
        <ele>996.44702148438</ele>
        <time>2017-12-02T09:16:07Z</time>
      </trkpt>
      <trkpt lat="45.31388" lon="5.88339">
        <ele>999.44702148438</ele>
        <time>2017-12-02T09:16:14Z</time>
      </trkpt>
      <trkpt lat="45.31392" lon="5.88334">
        <ele>1001.4470214844</ele>
        <time>2017-12-02T09:16:17Z</time>
      </trkpt>
      <trkpt lat="45.31393" lon="5.88327">
        <ele>1002.4470214844</ele>
        <time>2017-12-02T09:16:21Z</time>
      </trkpt>
      <trkpt lat="45.31396" lon="5.88322">
        <ele>1005.4470214844</ele>
        <time>2017-12-02T09:16:25Z</time>
      </trkpt>
      <trkpt lat="45.314" lon="5.88318">
        <ele>1008.4470214844</ele>
        <time>2017-12-02T09:16:28Z</time>
      </trkpt>
      <trkpt lat="45.31401" lon="5.88312">
        <ele>1008.4470214844</ele>
        <time>2017-12-02T09:16:33Z</time>
      </trkpt>
      <trkpt lat="45.31402" lon="5.88306">
        <ele>1003.4470214844</ele>
        <time>2017-12-02T09:16:44Z</time>
      </trkpt>
      <trkpt lat="45.31406" lon="5.88302">
        <ele>1005.4470214844</ele>
        <time>2017-12-02T09:16:47Z</time>
      </trkpt>
      <trkpt lat="45.3141" lon="5.88299">
        <ele>1007.4470214844</ele>
        <time>2017-12-02T09:16:52Z</time>
      </trkpt>
      <trkpt lat="45.31405" lon="5.88292">
        <ele>1005.4470214844</ele>
        <time>2017-12-02T09:16:57Z</time>
      </trkpt>
      <trkpt lat="45.31403" lon="5.88284">
        <ele>1007.4470214844</ele>
        <time>2017-12-02T09:17:03Z</time>
      </trkpt>
      <trkpt lat="45.31403" lon="5.88277">
        <ele>1008.4470214844</ele>
        <time>2017-12-02T09:17:09Z</time>
      </trkpt>
      <trkpt lat="45.314" lon="5.88272">
        <ele>1012.4470214844</ele>
        <time>2017-12-02T09:17:19Z</time>
      </trkpt>
      <trkpt lat="45.31397" lon="5.88266">
        <ele>1010.4470214844</ele>
        <time>2017-12-02T09:17:23Z</time>
      </trkpt>
      <trkpt lat="45.31395" lon="5.88259">
        <ele>1012.4470214844</ele>
        <time>2017-12-02T09:17:28Z</time>
      </trkpt>
      <trkpt lat="45.31393" lon="5.88252">
        <ele>1013.4470214844</ele>
        <time>2017-12-02T09:17:33Z</time>
      </trkpt>
      <trkpt lat="45.31391" lon="5.88245">
        <ele>1014.4470214844</ele>
        <time>2017-12-02T09:17:37Z</time>
      </trkpt>
      <trkpt lat="45.3139" lon="5.88239">
        <ele>1015.4470214844</ele>
        <time>2017-12-02T09:17:42Z</time>
      </trkpt>
      <trkpt lat="45.31394" lon="5.88234">
        <ele>1017.4470214844</ele>
        <time>2017-12-02T09:17:47Z</time>
      </trkpt>
      <trkpt lat="45.31397" lon="5.88228">
        <ele>1020.4470214844</ele>
        <time>2017-12-02T09:17:51Z</time>
      </trkpt>
      <trkpt lat="45.31397" lon="5.88221">
        <ele>1020.4470214844</ele>
        <time>2017-12-02T09:17:57Z</time>
      </trkpt>
      <trkpt lat="45.31402" lon="5.88218">
        <ele>1026.4470214844</ele>
        <time>2017-12-02T09:18:00Z</time>
      </trkpt>
      <trkpt lat="45.31406" lon="5.88212">
        <ele>1028.4470214844</ele>
        <time>2017-12-02T09:18:04Z</time>
      </trkpt>
      <trkpt lat="45.3141" lon="5.88208">
        <ele>1030.4470214844</ele>
        <time>2017-12-02T09:18:08Z</time>
      </trkpt>
      <trkpt lat="45.31415" lon="5.88206">
        <ele>1034.4470214844</ele>
        <time>2017-12-02T09:18:11Z</time>
      </trkpt>
      <trkpt lat="45.31417" lon="5.88199">
        <ele>1034.4470214844</ele>
        <time>2017-12-02T09:18:18Z</time>
      </trkpt>
      <trkpt lat="45.31417" lon="5.88192">
        <ele>1038.4470214844</ele>
        <time>2017-12-02T09:18:27Z</time>
      </trkpt>
      <trkpt lat="45.31419" lon="5.88186">
        <ele>1041.4470214844</ele>
        <time>2017-12-02T09:18:35Z</time>
      </trkpt>
      <trkpt lat="45.31422" lon="5.8818">
        <ele>1043.4470214844</ele>
        <time>2017-12-02T09:18:39Z</time>
      </trkpt>
      <trkpt lat="45.31424" lon="5.88174">
        <ele>1044.4470214844</ele>
        <time>2017-12-02T09:18:43Z</time>
      </trkpt>
      <trkpt lat="45.31422" lon="5.88166">
        <ele>1044.4470214844</ele>
        <time>2017-12-02T09:18:52Z</time>
      </trkpt>
      <trkpt lat="45.3142" lon="5.88159">
        <ele>1047.4470214844</ele>
        <time>2017-12-02T09:19:09Z</time>
      </trkpt>
      <trkpt lat="45.31415" lon="5.88157">
        <ele>1049.4470214844</ele>
        <time>2017-12-02T09:19:12Z</time>
      </trkpt>
      <trkpt lat="45.31412" lon="5.88153">
        <ele>1055.4470214844</ele>
        <time>2017-12-02T09:19:23Z</time>
      </trkpt>
      <trkpt lat="45.31409" lon="5.88148">
        <ele>1054.4470214844</ele>
        <time>2017-12-02T09:19:27Z</time>
      </trkpt>
      <trkpt lat="45.31407" lon="5.88139">
        <ele>1052.4470214844</ele>
        <time>2017-12-02T09:19:32Z</time>
      </trkpt>
      <trkpt lat="45.31406" lon="5.88131">
        <ele>1052.4470214844</ele>
        <time>2017-12-02T09:19:37Z</time>
      </trkpt>
      <trkpt lat="45.31406" lon="5.88123">
        <ele>1054.4470214844</ele>
        <time>2017-12-02T09:19:41Z</time>
      </trkpt>
      <trkpt lat="45.31409" lon="5.88118">
        <ele>1054.4470214844</ele>
        <time>2017-12-02T09:19:47Z</time>
      </trkpt>
      <trkpt lat="45.31412" lon="5.88111">
        <ele>1059.4470214844</ele>
        <time>2017-12-02T09:19:54Z</time>
      </trkpt>
      <trkpt lat="45.3141" lon="5.88105">
        <ele>1055.4470214844</ele>
        <time>2017-12-02T09:19:59Z</time>
      </trkpt>
      <trkpt lat="45.31406" lon="5.881">
        <ele>1065.4470214844</ele>
        <time>2017-12-02T09:20:08Z</time>
      </trkpt>
      <trkpt lat="45.31403" lon="5.88096">
        <ele>1068.4470214844</ele>
        <time>2017-12-02T09:20:13Z</time>
      </trkpt>
      <trkpt lat="45.31399" lon="5.88092">
        <ele>1072.4470214844</ele>
        <time>2017-12-02T09:20:19Z</time>
      </trkpt>
      <trkpt lat="45.31395" lon="5.88088">
        <ele>1074.4470214844</ele>
        <time>2017-12-02T09:20:31Z</time>
      </trkpt>
      <trkpt lat="45.31389" lon="5.88084">
        <ele>1077.4470214844</ele>
        <time>2017-12-02T09:20:44Z</time>
      </trkpt>
      <trkpt lat="45.3139" lon="5.88077">
        <ele>1081.4470214844</ele>
        <time>2017-12-02T09:20:48Z</time>
      </trkpt>
      <trkpt lat="45.31391" lon="5.8807">
        <ele>1085.4470214844</ele>
        <time>2017-12-02T09:20:53Z</time>
      </trkpt>
      <trkpt lat="45.31392" lon="5.88064">
        <ele>1089.4470214844</ele>
        <time>2017-12-02T09:20:58Z</time>
      </trkpt>
      <trkpt lat="45.31395" lon="5.88059">
        <ele>1091.4470214844</ele>
        <time>2017-12-02T09:21:03Z</time>
      </trkpt>
      <trkpt lat="45.31393" lon="5.88052">
        <ele>1091.4470214844</ele>
        <time>2017-12-02T09:21:12Z</time>
      </trkpt>
      <trkpt lat="45.31388" lon="5.88052">
        <ele>1090.4470214844</ele>
        <time>2017-12-02T09:21:18Z</time>
      </trkpt>
      <trkpt lat="45.31384" lon="5.88048">
        <ele>1091.4470214844</ele>
        <time>2017-12-02T09:21:24Z</time>
      </trkpt>
      <trkpt lat="45.31381" lon="5.88043">
        <ele>1091.4470214844</ele>
        <time>2017-12-02T09:21:30Z</time>
      </trkpt>
      <trkpt lat="45.31376" lon="5.88039">
        <ele>1094.4470214844</ele>
        <time>2017-12-02T09:21:34Z</time>
      </trkpt>
      <trkpt lat="45.31372" lon="5.88036">
        <ele>1097.4470214844</ele>
        <time>2017-12-02T09:21:41Z</time>
      </trkpt>
      <trkpt lat="45.31367" lon="5.88036">
        <ele>1098.4470214844</ele>
        <time>2017-12-02T09:21:51Z</time>
      </trkpt>
      <trkpt lat="45.31364" lon="5.88031">
        <ele>1105.4470214844</ele>
        <time>2017-12-02T09:21:57Z</time>
      </trkpt>
      <trkpt lat="45.31365" lon="5.88025">
        <ele>1106.4470214844</ele>
        <time>2017-12-02T09:22:03Z</time>
      </trkpt>
      <trkpt lat="45.31369" lon="5.88017">
        <ele>1106.4470214844</ele>
        <time>2017-12-02T09:22:08Z</time>
      </trkpt>
      <trkpt lat="45.3137" lon="5.8801">
        <ele>1107.4470214844</ele>
        <time>2017-12-02T09:22:13Z</time>
      </trkpt>
      <trkpt lat="45.31371" lon="5.88004">
        <ele>1106.4470214844</ele>
        <time>2017-12-02T09:22:19Z</time>
      </trkpt>
      <trkpt lat="45.31372" lon="5.87997">
        <ele>1107.4470214844</ele>
        <time>2017-12-02T09:22:25Z</time>
      </trkpt>
      <trkpt lat="45.31372" lon="5.8799">
        <ele>1111.4470214844</ele>
        <time>2017-12-02T09:22:31Z</time>
      </trkpt>
      <trkpt lat="45.31369" lon="5.87985">
        <ele>1115.4470214844</ele>
        <time>2017-12-02T09:22:36Z</time>
      </trkpt>
      <trkpt lat="45.31364" lon="5.8798">
        <ele>1116.4470214844</ele>
        <time>2017-12-02T09:22:39Z</time>
      </trkpt>
      <trkpt lat="45.3136" lon="5.87975">
        <ele>1116.4470214844</ele>
        <time>2017-12-02T09:22:44Z</time>
      </trkpt>
      <trkpt lat="45.31359" lon="5.87969">
        <ele>1114.4470214844</ele>
        <time>2017-12-02T09:22:49Z</time>
      </trkpt>
      <trkpt lat="45.31361" lon="5.87962">
        <ele>1112.4470214844</ele>
        <time>2017-12-02T09:22:54Z</time>
      </trkpt>
      <trkpt lat="45.31361" lon="5.87956">
        <ele>1111.4470214844</ele>
        <time>2017-12-02T09:22:58Z</time>
      </trkpt>
      <trkpt lat="45.31364" lon="5.8795">
        <ele>1112.4470214844</ele>
        <time>2017-12-02T09:23:02Z</time>
      </trkpt>
      <trkpt lat="45.31367" lon="5.87945">
        <ele>1114.4470214844</ele>
        <time>2017-12-02T09:23:05Z</time>
      </trkpt>
      <trkpt lat="45.31369" lon="5.87938">
        <ele>1116.4470214844</ele>
        <time>2017-12-02T09:23:10Z</time>
      </trkpt>
      <trkpt lat="45.31374" lon="5.87933">
        <ele>1119.4470214844</ele>
        <time>2017-12-02T09:23:15Z</time>
      </trkpt>
      <trkpt lat="45.31378" lon="5.87929">
        <ele>1122.4470214844</ele>
        <time>2017-12-02T09:23:20Z</time>
      </trkpt>
      <trkpt lat="45.3138" lon="5.87923">
        <ele>1123.4470214844</ele>
        <time>2017-12-02T09:23:26Z</time>
      </trkpt>
      <trkpt lat="45.3138" lon="5.87916">
        <ele>1122.4470214844</ele>
        <time>2017-12-02T09:23:32Z</time>
      </trkpt>
      <trkpt lat="45.31383" lon="5.87911">
        <ele>1125.4470214844</ele>
        <time>2017-12-02T09:23:46Z</time>
      </trkpt>
      <trkpt lat="45.3138" lon="5.87904">
        <ele>1127.4470214844</ele>
        <time>2017-12-02T09:23:56Z</time>
      </trkpt>
      <trkpt lat="45.31378" lon="5.87898">
        <ele>1133.4470214844</ele>
        <time>2017-12-02T09:24:02Z</time>
      </trkpt>
      <trkpt lat="45.31379" lon="5.87891">
        <ele>1138.4460449219</ele>
        <time>2017-12-02T09:24:07Z</time>
      </trkpt>
      <trkpt lat="45.31379" lon="5.87885">
        <ele>1138.4460449219</ele>
        <time>2017-12-02T09:24:12Z</time>
      </trkpt>
      <trkpt lat="45.3138" lon="5.87878">
        <ele>1140.4460449219</ele>
        <time>2017-12-02T09:24:18Z</time>
      </trkpt>
      <trkpt lat="45.31378" lon="5.87871">
        <ele>1140.4460449219</ele>
        <time>2017-12-02T09:24:23Z</time>
      </trkpt>
      <trkpt lat="45.31377" lon="5.87864">
        <ele>1141.4460449219</ele>
        <time>2017-12-02T09:24:27Z</time>
      </trkpt>
      <trkpt lat="45.31373" lon="5.87857">
        <ele>1139.4460449219</ele>
        <time>2017-12-02T09:24:32Z</time>
      </trkpt>
      <trkpt lat="45.31373" lon="5.87849">
        <ele>1141.4460449219</ele>
        <time>2017-12-02T09:24:38Z</time>
      </trkpt>
      <trkpt lat="45.31375" lon="5.87842">
        <ele>1145.4460449219</ele>
        <time>2017-12-02T09:24:42Z</time>
      </trkpt>
      <trkpt lat="45.31378" lon="5.87837">
        <ele>1146.4460449219</ele>
        <time>2017-12-02T09:24:46Z</time>
      </trkpt>
      <trkpt lat="45.31377" lon="5.8783">
        <ele>1150.4460449219</ele>
        <time>2017-12-02T09:24:53Z</time>
      </trkpt>
      <trkpt lat="45.31378" lon="5.87824">
        <ele>1149.4460449219</ele>
        <time>2017-12-02T09:24:57Z</time>
      </trkpt>
      <trkpt lat="45.31379" lon="5.87814">
        <ele>1149.4460449219</ele>
        <time>2017-12-02T09:25:01Z</time>
      </trkpt>
      <trkpt lat="45.31377" lon="5.87807">
        <ele>1150.4460449219</ele>
        <time>2017-12-02T09:25:05Z</time>
      </trkpt>
      <trkpt lat="45.31377" lon="5.87801">
        <ele>1150.4460449219</ele>
        <time>2017-12-02T09:25:08Z</time>
      </trkpt>
      <trkpt lat="45.31377" lon="5.87793">
        <ele>1151.4460449219</ele>
        <time>2017-12-02T09:25:15Z</time>
      </trkpt>
      <trkpt lat="45.31376" lon="5.87786">
        <ele>1152.4460449219</ele>
        <time>2017-12-02T09:25:19Z</time>
      </trkpt>
      <trkpt lat="45.31376" lon="5.87779">
        <ele>1155.4460449219</ele>
        <time>2017-12-02T09:25:27Z</time>
      </trkpt>
      <trkpt lat="45.31373" lon="5.87773">
        <ele>1159.4460449219</ele>
        <time>2017-12-02T09:25:38Z</time>
      </trkpt>
      <trkpt lat="45.31374" lon="5.87766">
        <ele>1160.4460449219</ele>
        <time>2017-12-02T09:25:43Z</time>
      </trkpt>
      <trkpt lat="45.31375" lon="5.87759">
        <ele>1162.4460449219</ele>
        <time>2017-12-02T09:25:50Z</time>
      </trkpt>
      <trkpt lat="45.31374" lon="5.87751">
        <ele>1164.4460449219</ele>
        <time>2017-12-02T09:25:55Z</time>
      </trkpt>
      <trkpt lat="45.31375" lon="5.87744">
        <ele>1166.4460449219</ele>
        <time>2017-12-02T09:26:15Z</time>
      </trkpt>
      <trkpt lat="45.31374" lon="5.87736">
        <ele>1167.4460449219</ele>
        <time>2017-12-02T09:26:19Z</time>
      </trkpt>
      <trkpt lat="45.31376" lon="5.8773">
        <ele>1168.4460449219</ele>
        <time>2017-12-02T09:26:26Z</time>
      </trkpt>
      <trkpt lat="45.31375" lon="5.87722">
        <ele>1172.4460449219</ele>
        <time>2017-12-02T09:26:32Z</time>
      </trkpt>
      <trkpt lat="45.31374" lon="5.87716">
        <ele>1173.4460449219</ele>
        <time>2017-12-02T09:26:37Z</time>
      </trkpt>
      <trkpt lat="45.31372" lon="5.87709">
        <ele>1176.4460449219</ele>
        <time>2017-12-02T09:26:42Z</time>
      </trkpt>
      <trkpt lat="45.31372" lon="5.87703">
        <ele>1179.4460449219</ele>
        <time>2017-12-02T09:26:47Z</time>
      </trkpt>
      <trkpt lat="45.31373" lon="5.87695">
        <ele>1183.4460449219</ele>
        <time>2017-12-02T09:26:53Z</time>
      </trkpt>
      <trkpt lat="45.31375" lon="5.87689">
        <ele>1180.4460449219</ele>
        <time>2017-12-02T09:27:00Z</time>
      </trkpt>
      <trkpt lat="45.31374" lon="5.87682">
        <ele>1181.4460449219</ele>
        <time>2017-12-02T09:27:05Z</time>
      </trkpt>
      <trkpt lat="45.31377" lon="5.87676">
        <ele>1185.4460449219</ele>
        <time>2017-12-02T09:27:09Z</time>
      </trkpt>
      <trkpt lat="45.31373" lon="5.8767">
        <ele>1190.4460449219</ele>
        <time>2017-12-02T09:27:15Z</time>
      </trkpt>
      <trkpt lat="45.3137" lon="5.87665">
        <ele>1191.4460449219</ele>
        <time>2017-12-02T09:27:23Z</time>
      </trkpt>
      <trkpt lat="45.31366" lon="5.87657">
        <ele>1193.4460449219</ele>
        <time>2017-12-02T09:27:47Z</time>
      </trkpt>
      <trkpt lat="45.31365" lon="5.87651">
        <ele>1195.4460449219</ele>
        <time>2017-12-02T09:27:52Z</time>
      </trkpt>
      <trkpt lat="45.31366" lon="5.87644">
        <ele>1197.4460449219</ele>
        <time>2017-12-02T09:28:00Z</time>
      </trkpt>
      <trkpt lat="45.31368" lon="5.87638">
        <ele>1197.4460449219</ele>
        <time>2017-12-02T09:28:06Z</time>
      </trkpt>
      <trkpt lat="45.31371" lon="5.87633">
        <ele>1197.4460449219</ele>
        <time>2017-12-02T09:28:10Z</time>
      </trkpt>
      <trkpt lat="45.31373" lon="5.87627">
        <ele>1196.4460449219</ele>
        <time>2017-12-02T09:28:17Z</time>
      </trkpt>
      <trkpt lat="45.31375" lon="5.87621">
        <ele>1202.4460449219</ele>
        <time>2017-12-02T09:28:24Z</time>
      </trkpt>
      <trkpt lat="45.31375" lon="5.87615">
        <ele>1202.4460449219</ele>
        <time>2017-12-02T09:28:31Z</time>
      </trkpt>
      <trkpt lat="45.3137" lon="5.87612">
        <ele>1207.4460449219</ele>
        <time>2017-12-02T09:28:46Z</time>
      </trkpt>
      <trkpt lat="45.31366" lon="5.87609">
        <ele>1206.4460449219</ele>
        <time>2017-12-02T09:28:56Z</time>
      </trkpt>
      <trkpt lat="45.31361" lon="5.87605">
        <ele>1207.4460449219</ele>
        <time>2017-12-02T09:29:08Z</time>
      </trkpt>
      <trkpt lat="45.3136" lon="5.87599">
        <ele>1209.4460449219</ele>
        <time>2017-12-02T09:29:12Z</time>
      </trkpt>
      <trkpt lat="45.31361" lon="5.87591">
        <ele>1213.4460449219</ele>
        <time>2017-12-02T09:29:18Z</time>
      </trkpt>
      <trkpt lat="45.3136" lon="5.87585">
        <ele>1219.4460449219</ele>
        <time>2017-12-02T09:29:23Z</time>
      </trkpt>
      <trkpt lat="45.3136" lon="5.87578">
        <ele>1221.4460449219</ele>
        <time>2017-12-02T09:29:26Z</time>
      </trkpt>
      <trkpt lat="45.3136" lon="5.87571">
        <ele>1222.4460449219</ele>
        <time>2017-12-02T09:29:29Z</time>
      </trkpt>
      <trkpt lat="45.3136" lon="5.87564">
        <ele>1224.4460449219</ele>
        <time>2017-12-02T09:29:33Z</time>
      </trkpt>
      <trkpt lat="45.31359" lon="5.87557">
        <ele>1226.4460449219</ele>
        <time>2017-12-02T09:29:40Z</time>
      </trkpt>
      <trkpt lat="45.31356" lon="5.87551">
        <ele>1227.4460449219</ele>
        <time>2017-12-02T09:29:44Z</time>
      </trkpt>
      <trkpt lat="45.31352" lon="5.87547">
        <ele>1226.4460449219</ele>
        <time>2017-12-02T09:29:47Z</time>
      </trkpt>
      <trkpt lat="45.31351" lon="5.8754">
        <ele>1228.4460449219</ele>
        <time>2017-12-02T09:29:56Z</time>
      </trkpt>
      <trkpt lat="45.3135" lon="5.87533">
        <ele>1234.4460449219</ele>
        <time>2017-12-02T09:30:03Z</time>
      </trkpt>
      <trkpt lat="45.31346" lon="5.87532">
        <ele>1231.4460449219</ele>
        <time>2017-12-02T09:30:11Z</time>
      </trkpt>
      <trkpt lat="45.31345" lon="5.87524">
        <ele>1233.4460449219</ele>
        <time>2017-12-02T09:30:17Z</time>
      </trkpt>
      <trkpt lat="45.31346" lon="5.87517">
        <ele>1233.4460449219</ele>
        <time>2017-12-02T09:30:22Z</time>
      </trkpt>
      <trkpt lat="45.31348" lon="5.8751">
        <ele>1242.4460449219</ele>
        <time>2017-12-02T09:30:36Z</time>
      </trkpt>
      <trkpt lat="45.31344" lon="5.87505">
        <ele>1246.4460449219</ele>
        <time>2017-12-02T09:30:44Z</time>
      </trkpt>
      <trkpt lat="45.31343" lon="5.87498">
        <ele>1245.4460449219</ele>
        <time>2017-12-02T09:30:50Z</time>
      </trkpt>
      <trkpt lat="45.31341" lon="5.87492">
        <ele>1245.4460449219</ele>
        <time>2017-12-02T09:30:53Z</time>
      </trkpt>
      <trkpt lat="45.31337" lon="5.87488">
        <ele>1251.4460449219</ele>
        <time>2017-12-02T09:31:05Z</time>
      </trkpt>
      <trkpt lat="45.31342" lon="5.87488">
        <ele>1257.4460449219</ele>
        <time>2017-12-02T09:31:15Z</time>
      </trkpt>
      <trkpt lat="45.31344" lon="5.87482">
        <ele>1254.4460449219</ele>
        <time>2017-12-02T09:31:20Z</time>
      </trkpt>
      <trkpt lat="45.31348" lon="5.87478">
        <ele>1255.4460449219</ele>
        <time>2017-12-02T09:31:25Z</time>
      </trkpt>
      <trkpt lat="45.31346" lon="5.87472">
        <ele>1267.4460449219</ele>
        <time>2017-12-02T09:31:30Z</time>
      </trkpt>
      <trkpt lat="45.31345" lon="5.87464">
        <ele>1262.4460449219</ele>
        <time>2017-12-02T09:31:35Z</time>
      </trkpt>
      <trkpt lat="45.31341" lon="5.87459">
        <ele>1262.4460449219</ele>
        <time>2017-12-02T09:31:39Z</time>
      </trkpt>
      <trkpt lat="45.31338" lon="5.87455">
        <ele>1262.4460449219</ele>
        <time>2017-12-02T09:31:44Z</time>
      </trkpt>
      <trkpt lat="45.31332" lon="5.87454">
        <ele>1267.4460449219</ele>
        <time>2017-12-02T09:31:48Z</time>
      </trkpt>
      <trkpt lat="45.3133" lon="5.87447">
        <ele>1266.4460449219</ele>
        <time>2017-12-02T09:31:55Z</time>
      </trkpt>
      <trkpt lat="45.3133" lon="5.87441">
        <ele>1267.4460449219</ele>
        <time>2017-12-02T09:31:59Z</time>
      </trkpt>
      <trkpt lat="45.31326" lon="5.87436">
        <ele>1268.4460449219</ele>
        <time>2017-12-02T09:32:02Z</time>
      </trkpt>
      <trkpt lat="45.31322" lon="5.87431">
        <ele>1270.4460449219</ele>
        <time>2017-12-02T09:32:07Z</time>
      </trkpt>
      <trkpt lat="45.31318" lon="5.87427">
        <ele>1272.4460449219</ele>
        <time>2017-12-02T09:32:11Z</time>
      </trkpt>
      <trkpt lat="45.31318" lon="5.8742">
        <ele>1275.4460449219</ele>
        <time>2017-12-02T09:32:16Z</time>
      </trkpt>
      <trkpt lat="45.31318" lon="5.87414">
        <ele>1276.4460449219</ele>
        <time>2017-12-02T09:32:20Z</time>
      </trkpt>
      <trkpt lat="45.31319" lon="5.87406">
        <ele>1261.4460449219</ele>
        <time>2017-12-02T09:32:34Z</time>
      </trkpt>
      <trkpt lat="45.3132" lon="5.87399">
        <ele>1277.4460449219</ele>
        <time>2017-12-02T09:32:40Z</time>
      </trkpt>
      <trkpt lat="45.31322" lon="5.87392">
        <ele>1281.4460449219</ele>
        <time>2017-12-02T09:32:46Z</time>
      </trkpt>
      <trkpt lat="45.31321" lon="5.87385">
        <ele>1278.4460449219</ele>
        <time>2017-12-02T09:32:49Z</time>
      </trkpt>
      <trkpt lat="45.31323" lon="5.87378">
        <ele>1280.4460449219</ele>
        <time>2017-12-02T09:32:53Z</time>
      </trkpt>
      <trkpt lat="45.31324" lon="5.87372">
        <ele>1280.4460449219</ele>
        <time>2017-12-02T09:32:56Z</time>
      </trkpt>
      <trkpt lat="45.31327" lon="5.87366">
        <ele>1283.4460449219</ele>
        <time>2017-12-02T09:32:59Z</time>
      </trkpt>
      <trkpt lat="45.31326" lon="5.87358">
        <ele>1287.4460449219</ele>
        <time>2017-12-02T09:33:05Z</time>
      </trkpt>
      <trkpt lat="45.31328" lon="5.8735">
        <ele>1289.4460449219</ele>
        <time>2017-12-02T09:33:09Z</time>
      </trkpt>
      <trkpt lat="45.3133" lon="5.87344">
        <ele>1292.4460449219</ele>
        <time>2017-12-02T09:33:15Z</time>
      </trkpt>
      <trkpt lat="45.31332" lon="5.87336">
        <ele>1295.4460449219</ele>
        <time>2017-12-02T09:33:20Z</time>
      </trkpt>
      <trkpt lat="45.31334" lon="5.87329">
        <ele>1296.4460449219</ele>
        <time>2017-12-02T09:33:24Z</time>
      </trkpt>
      <trkpt lat="45.31336" lon="5.87321">
        <ele>1294.4460449219</ele>
        <time>2017-12-02T09:33:27Z</time>
      </trkpt>
      <trkpt lat="45.31337" lon="5.87314">
        <ele>1297.4460449219</ele>
        <time>2017-12-02T09:33:32Z</time>
      </trkpt>
      <trkpt lat="45.31337" lon="5.87306">
        <ele>1300.4460449219</ele>
        <time>2017-12-02T09:33:37Z</time>
      </trkpt>
      <trkpt lat="45.31336" lon="5.873">
        <ele>1300.4460449219</ele>
        <time>2017-12-02T09:33:41Z</time>
      </trkpt>
      <trkpt lat="45.31338" lon="5.87294">
        <ele>1301.4460449219</ele>
        <time>2017-12-02T09:33:45Z</time>
      </trkpt>
      <trkpt lat="45.31338" lon="5.87286">
        <ele>1302.4460449219</ele>
        <time>2017-12-02T09:33:50Z</time>
      </trkpt>
      <trkpt lat="45.3134" lon="5.87279">
        <ele>1305.4460449219</ele>
        <time>2017-12-02T09:33:54Z</time>
      </trkpt>
      <trkpt lat="45.31342" lon="5.87274">
        <ele>1309.4460449219</ele>
        <time>2017-12-02T09:33:58Z</time>
      </trkpt>
      <trkpt lat="45.31344" lon="5.87266">
        <ele>1309.4460449219</ele>
        <time>2017-12-02T09:34:02Z</time>
      </trkpt>
      <trkpt lat="45.31345" lon="5.87258">
        <ele>1309.4460449219</ele>
        <time>2017-12-02T09:34:06Z</time>
      </trkpt>
      <trkpt lat="45.31345" lon="5.87252">
        <ele>1312.4460449219</ele>
        <time>2017-12-02T09:34:10Z</time>
      </trkpt>
      <trkpt lat="45.31347" lon="5.87243">
        <ele>1314.4460449219</ele>
        <time>2017-12-02T09:34:15Z</time>
      </trkpt>
      <trkpt lat="45.3135" lon="5.87237">
        <ele>1316.4460449219</ele>
        <time>2017-12-02T09:34:20Z</time>
      </trkpt>
      <trkpt lat="45.31352" lon="5.87229">
        <ele>1320.4460449219</ele>
        <time>2017-12-02T09:34:30Z</time>
      </trkpt>
      <trkpt lat="45.31355" lon="5.8722">
        <ele>1320.4460449219</ele>
        <time>2017-12-02T09:34:35Z</time>
      </trkpt>
      <trkpt lat="45.31357" lon="5.87215">
        <ele>1322.4460449219</ele>
        <time>2017-12-02T09:34:42Z</time>
      </trkpt>
      <trkpt lat="45.3136" lon="5.87208">
        <ele>1319.4460449219</ele>
        <time>2017-12-02T09:34:47Z</time>
      </trkpt>
      <trkpt lat="45.31364" lon="5.87212">
        <ele>1324.4460449219</ele>
        <time>2017-12-02T09:34:54Z</time>
      </trkpt>
      <trkpt lat="45.31369" lon="5.8721">
        <ele>1326.4460449219</ele>
        <time>2017-12-02T09:36:30Z</time>
      </trkpt>
      <trkpt lat="45.31375" lon="5.87206">
        <ele>1323.4460449219</ele>
        <time>2017-12-02T09:36:33Z</time>
      </trkpt>
      <trkpt lat="45.31382" lon="5.87201">
        <ele>1319.4460449219</ele>
        <time>2017-12-02T09:36:35Z</time>
      </trkpt>
      <trkpt lat="45.31388" lon="5.87198">
        <ele>1318.4460449219</ele>
        <time>2017-12-02T09:36:37Z</time>
      </trkpt>
      <trkpt lat="45.31401" lon="5.87197">
        <ele>1317.4460449219</ele>
        <time>2017-12-02T09:36:39Z</time>
      </trkpt>
      <trkpt lat="45.31415" lon="5.87207">
        <ele>1315.4460449219</ele>
        <time>2017-12-02T09:36:41Z</time>
      </trkpt>
      <trkpt lat="45.31426" lon="5.87216">
        <ele>1315.4460449219</ele>
        <time>2017-12-02T09:36:43Z</time>
      </trkpt>
      <trkpt lat="45.31408" lon="5.87237">
        <ele>1311.4460449219</ele>
        <time>2017-12-02T09:36:45Z</time>
      </trkpt>
      <trkpt lat="45.31406" lon="5.87255">
        <ele>1310.4460449219</ele>
        <time>2017-12-02T09:36:46Z</time>
      </trkpt>
      <trkpt lat="45.31406" lon="5.87284">
        <ele>1309.4460449219</ele>
        <time>2017-12-02T09:36:48Z</time>
      </trkpt>
      <trkpt lat="45.31417" lon="5.87277">
        <ele>1300.4460449219</ele>
        <time>2017-12-02T09:36:50Z</time>
      </trkpt>
      <trkpt lat="45.31422" lon="5.8728">
        <ele>1299.4460449219</ele>
        <time>2017-12-02T09:36:51Z</time>
      </trkpt>
      <trkpt lat="45.31425" lon="5.87298">
        <ele>1289.4460449219</ele>
        <time>2017-12-02T09:36:53Z</time>
      </trkpt>
      <trkpt lat="45.31429" lon="5.87322">
        <ele>1284.4460449219</ele>
        <time>2017-12-02T09:36:55Z</time>
      </trkpt>
      <trkpt lat="45.31433" lon="5.87342">
        <ele>1277.4460449219</ele>
        <time>2017-12-02T09:36:57Z</time>
      </trkpt>
      <trkpt lat="45.3143" lon="5.87363">
        <ele>1267.4460449219</ele>
        <time>2017-12-02T09:36:59Z</time>
      </trkpt>
      <trkpt lat="45.31426" lon="5.87387">
        <ele>1260.4460449219</ele>
        <time>2017-12-02T09:37:01Z</time>
      </trkpt>
      <trkpt lat="45.31422" lon="5.87396">
        <ele>1258.4460449219</ele>
        <time>2017-12-02T09:37:02Z</time>
      </trkpt>
      <trkpt lat="45.3142" lon="5.8741">
        <ele>1256.4460449219</ele>
        <time>2017-12-02T09:37:03Z</time>
      </trkpt>
      <trkpt lat="45.31428" lon="5.87438">
        <ele>1253.4460449219</ele>
        <time>2017-12-02T09:37:05Z</time>
      </trkpt>
      <trkpt lat="45.31433" lon="5.87466">
        <ele>1250.4460449219</ele>
        <time>2017-12-02T09:37:07Z</time>
      </trkpt>
      <trkpt lat="45.31443" lon="5.87494">
        <ele>1250.4460449219</ele>
        <time>2017-12-02T09:37:09Z</time>
      </trkpt>
      <trkpt lat="45.31437" lon="5.87503">
        <ele>1242.4460449219</ele>
        <time>2017-12-02T09:37:11Z</time>
      </trkpt>
      <trkpt lat="45.31433" lon="5.87516">
        <ele>1238.4460449219</ele>
        <time>2017-12-02T09:37:15Z</time>
      </trkpt>
      <trkpt lat="45.31437" lon="5.87532">
        <ele>1235.4460449219</ele>
        <time>2017-12-02T09:37:17Z</time>
      </trkpt>
      <trkpt lat="45.31443" lon="5.87542">
        <ele>1229.4460449219</ele>
        <time>2017-12-02T09:37:19Z</time>
      </trkpt>
      <trkpt lat="45.31455" lon="5.87563">
        <ele>1225.4460449219</ele>
        <time>2017-12-02T09:37:21Z</time>
      </trkpt>
      <trkpt lat="45.31463" lon="5.87591">
        <ele>1219.4460449219</ele>
        <time>2017-12-02T09:37:23Z</time>
      </trkpt>
      <trkpt lat="45.3147" lon="5.87623">
        <ele>1180.4460449219</ele>
        <time>2017-12-02T09:37:25Z</time>
      </trkpt>
      <trkpt lat="45.31468" lon="5.87635">
        <ele>1185.4460449219</ele>
        <time>2017-12-02T09:37:26Z</time>
      </trkpt>
      <trkpt lat="45.31465" lon="5.87663">
        <ele>1189.4460449219</ele>
        <time>2017-12-02T09:37:28Z</time>
      </trkpt>
      <trkpt lat="45.31471" lon="5.8769">
        <ele>1187.4460449219</ele>
        <time>2017-12-02T09:37:30Z</time>
      </trkpt>
      <trkpt lat="45.31476" lon="5.87716">
        <ele>1186.4460449219</ele>
        <time>2017-12-02T09:37:32Z</time>
      </trkpt>
      <trkpt lat="45.31479" lon="5.87724">
        <ele>1188.4460449219</ele>
        <time>2017-12-02T09:37:33Z</time>
      </trkpt>
      <trkpt lat="45.31481" lon="5.8774">
        <ele>1187.4470214844</ele>
        <time>2017-12-02T09:37:35Z</time>
      </trkpt>
      <trkpt lat="45.31483" lon="5.87752">
        <ele>1185.4470214844</ele>
        <time>2017-12-02T09:37:36Z</time>
      </trkpt>
      <trkpt lat="45.31484" lon="5.87764">
        <ele>1182.4470214844</ele>
        <time>2017-12-02T09:37:37Z</time>
      </trkpt>
      <trkpt lat="45.31488" lon="5.87785">
        <ele>1176.4470214844</ele>
        <time>2017-12-02T09:37:39Z</time>
      </trkpt>
      <trkpt lat="45.3149" lon="5.8781">
        <ele>1168.4470214844</ele>
        <time>2017-12-02T09:37:41Z</time>
      </trkpt>
      <trkpt lat="45.31492" lon="5.87837">
        <ele>1164.4470214844</ele>
        <time>2017-12-02T09:37:43Z</time>
      </trkpt>
      <trkpt lat="45.31494" lon="5.87846">
        <ele>1159.4470214844</ele>
        <time>2017-12-02T09:37:44Z</time>
      </trkpt>
      <trkpt lat="45.31496" lon="5.87872">
        <ele>1153.4470214844</ele>
        <time>2017-12-02T09:37:46Z</time>
      </trkpt>
      <trkpt lat="45.31505" lon="5.87905">
        <ele>1151.4470214844</ele>
        <time>2017-12-02T09:37:48Z</time>
      </trkpt>
      <trkpt lat="45.31511" lon="5.87933">
        <ele>1147.4470214844</ele>
        <time>2017-12-02T09:37:50Z</time>
      </trkpt>
      <trkpt lat="45.31514" lon="5.87959">
        <ele>1137.4470214844</ele>
        <time>2017-12-02T09:37:52Z</time>
      </trkpt>
      <trkpt lat="45.31521" lon="5.87985">
        <ele>1130.4470214844</ele>
        <time>2017-12-02T09:37:54Z</time>
      </trkpt>
      <trkpt lat="45.31524" lon="5.88021">
        <ele>1127.4470214844</ele>
        <time>2017-12-02T09:37:56Z</time>
      </trkpt>
      <trkpt lat="45.31526" lon="5.88038">
        <ele>1126.4470214844</ele>
        <time>2017-12-02T09:37:57Z</time>
      </trkpt>
      <trkpt lat="45.31531" lon="5.88065">
        <ele>1122.4470214844</ele>
        <time>2017-12-02T09:37:59Z</time>
      </trkpt>
      <trkpt lat="45.31537" lon="5.88086">
        <ele>1113.4470214844</ele>
        <time>2017-12-02T09:38:01Z</time>
      </trkpt>
      <trkpt lat="45.31543" lon="5.88118">
        <ele>1109.4470214844</ele>
        <time>2017-12-02T09:38:03Z</time>
      </trkpt>
      <trkpt lat="45.3155" lon="5.88145">
        <ele>1104.4470214844</ele>
        <time>2017-12-02T09:38:05Z</time>
      </trkpt>
      <trkpt lat="45.31552" lon="5.88156">
        <ele>1097.4470214844</ele>
        <time>2017-12-02T09:38:06Z</time>
      </trkpt>
      <trkpt lat="45.31555" lon="5.88169">
        <ele>1093.4470214844</ele>
        <time>2017-12-02T09:38:07Z</time>
      </trkpt>
      <trkpt lat="45.3156" lon="5.88198">
        <ele>1086.4470214844</ele>
        <time>2017-12-02T09:38:09Z</time>
      </trkpt>
      <trkpt lat="45.3156" lon="5.88221">
        <ele>1081.4470214844</ele>
        <time>2017-12-02T09:38:11Z</time>
      </trkpt>
      <trkpt lat="45.31562" lon="5.88247">
        <ele>1079.4470214844</ele>
        <time>2017-12-02T09:38:13Z</time>
      </trkpt>
      <trkpt lat="45.31559" lon="5.88257">
        <ele>1075.4470214844</ele>
        <time>2017-12-02T09:38:14Z</time>
      </trkpt>
      <trkpt lat="45.31557" lon="5.88271">
        <ele>1067.4470214844</ele>
        <time>2017-12-02T09:38:16Z</time>
      </trkpt>
      <trkpt lat="45.3155" lon="5.88281">
        <ele>1059.4470214844</ele>
        <time>2017-12-02T09:38:18Z</time>
      </trkpt>
      <trkpt lat="45.31541" lon="5.88296">
        <ele>1053.4470214844</ele>
        <time>2017-12-02T09:38:20Z</time>
      </trkpt>
      <trkpt lat="45.31538" lon="5.88315">
        <ele>1051.4470214844</ele>
        <time>2017-12-02T09:38:22Z</time>
      </trkpt>
      <trkpt lat="45.31532" lon="5.88325">
        <ele>1048.4470214844</ele>
        <time>2017-12-02T09:38:24Z</time>
      </trkpt>
      <trkpt lat="45.31528" lon="5.88335">
        <ele>1045.4470214844</ele>
        <time>2017-12-02T09:38:25Z</time>
      </trkpt>
      <trkpt lat="45.31523" lon="5.88344">
        <ele>1042.4470214844</ele>
        <time>2017-12-02T09:38:26Z</time>
      </trkpt>
      <trkpt lat="45.31514" lon="5.88362">
        <ele>1036.4470214844</ele>
        <time>2017-12-02T09:38:28Z</time>
      </trkpt>
      <trkpt lat="45.31502" lon="5.88381">
        <ele>1032.4470214844</ele>
        <time>2017-12-02T09:38:30Z</time>
      </trkpt>
      <trkpt lat="45.31498" lon="5.8839">
        <ele>1030.4470214844</ele>
        <time>2017-12-02T09:38:31Z</time>
      </trkpt>
      <trkpt lat="45.31485" lon="5.88408">
        <ele>1022.4470214844</ele>
        <time>2017-12-02T09:38:33Z</time>
      </trkpt>
      <trkpt lat="45.3148" lon="5.8843">
        <ele>1014.4470214844</ele>
        <time>2017-12-02T09:38:35Z</time>
      </trkpt>
      <trkpt lat="45.31469" lon="5.88448">
        <ele>1008.4470214844</ele>
        <time>2017-12-02T09:38:37Z</time>
      </trkpt>
      <trkpt lat="45.31465" lon="5.88458">
        <ele>1006.4470214844</ele>
        <time>2017-12-02T09:38:38Z</time>
      </trkpt>
      <trkpt lat="45.31455" lon="5.88474">
        <ele>1004.4470214844</ele>
        <time>2017-12-02T09:38:40Z</time>
      </trkpt>
      <trkpt lat="45.31441" lon="5.8849">
        <ele>1000.4470214844</ele>
        <time>2017-12-02T09:38:42Z</time>
      </trkpt>
      <trkpt lat="45.31431" lon="5.88504">
        <ele>996.44702148438</ele>
        <time>2017-12-02T09:38:44Z</time>
      </trkpt>
      <trkpt lat="45.31421" lon="5.88516">
        <ele>994.44702148438</ele>
        <time>2017-12-02T09:38:46Z</time>
      </trkpt>
      <trkpt lat="45.31411" lon="5.88534">
        <ele>992.44702148438</ele>
        <time>2017-12-02T09:38:48Z</time>
      </trkpt>
      <trkpt lat="45.31406" lon="5.88539">
        <ele>990.44702148438</ele>
        <time>2017-12-02T09:38:49Z</time>
      </trkpt>
      <trkpt lat="45.31397" lon="5.88552">
        <ele>987.44702148438</ele>
        <time>2017-12-02T09:38:51Z</time>
      </trkpt>
      <trkpt lat="45.31392" lon="5.88556">
        <ele>987.44702148438</ele>
        <time>2017-12-02T09:38:52Z</time>
      </trkpt>
      <trkpt lat="45.31382" lon="5.88553">
        <ele>984.44702148438</ele>
        <time>2017-12-02T09:38:55Z</time>
      </trkpt>
      <trkpt lat="45.3138" lon="5.88542">
        <ele>983.44702148438</ele>
        <time>2017-12-02T09:38:57Z</time>
      </trkpt>
      <trkpt lat="45.31378" lon="5.88534">
        <ele>988.44702148438</ele>
        <time>2017-12-02T09:38:58Z</time>
      </trkpt>
      <trkpt lat="45.31378" lon="5.88526">
        <ele>985.44702148438</ele>
        <time>2017-12-02T09:39:00Z</time>
      </trkpt>
      <trkpt lat="45.31376" lon="5.88519">
        <ele>979.44702148438</ele>
        <time>2017-12-02T09:39:06Z</time>
      </trkpt>
      <trkpt lat="45.31374" lon="5.88513">
        <ele>977.44702148438</ele>
        <time>2017-12-02T09:39:15Z</time>
      </trkpt>
      <trkpt lat="45.31376" lon="5.88519">
        <ele>974.44702148438</ele>
        <time>2017-12-02T09:39:49Z</time>
      </trkpt>
      <trkpt lat="45.31375" lon="5.88512">
        <ele>979.44702148438</ele>
        <time>2017-12-02T09:41:54Z</time>
      </trkpt>
      <trkpt lat="45.31373" lon="5.88504">
        <ele>977.44702148438</ele>
        <time>2017-12-02T09:41:58Z</time>
      </trkpt>
      <trkpt lat="45.31373" lon="5.88497">
        <ele>978.44702148438</ele>
        <time>2017-12-02T09:42:03Z</time>
      </trkpt>
      <trkpt lat="45.31371" lon="5.88491">
        <ele>978.44702148438</ele>
        <time>2017-12-02T09:42:06Z</time>
      </trkpt>
      <trkpt lat="45.3137" lon="5.88482">
        <ele>976.44702148438</ele>
        <time>2017-12-02T09:42:10Z</time>
      </trkpt>
      <trkpt lat="45.31368" lon="5.88476">
        <ele>978.44702148438</ele>
        <time>2017-12-02T09:42:14Z</time>
      </trkpt>
      <trkpt lat="45.31368" lon="5.88468">
        <ele>978.44702148438</ele>
        <time>2017-12-02T09:42:19Z</time>
      </trkpt>
      <trkpt lat="45.31369" lon="5.88462">
        <ele>981.44702148438</ele>
        <time>2017-12-02T09:42:23Z</time>
      </trkpt>
      <trkpt lat="45.31369" lon="5.88455">
        <ele>981.44702148438</ele>
        <time>2017-12-02T09:42:26Z</time>
      </trkpt>
      <trkpt lat="45.31369" lon="5.88449">
        <ele>985.44702148438</ele>
        <time>2017-12-02T09:42:30Z</time>
      </trkpt>
      <trkpt lat="45.31368" lon="5.88439">
        <ele>985.44702148438</ele>
        <time>2017-12-02T09:42:34Z</time>
      </trkpt>
      <trkpt lat="45.31367" lon="5.8843">
        <ele>988.44702148438</ele>
        <time>2017-12-02T09:42:37Z</time>
      </trkpt>
      <trkpt lat="45.31369" lon="5.88424">
        <ele>987.44702148438</ele>
        <time>2017-12-02T09:42:41Z</time>
      </trkpt>
      <trkpt lat="45.31369" lon="5.88417">
        <ele>989.44702148438</ele>
        <time>2017-12-02T09:42:45Z</time>
      </trkpt>
      <trkpt lat="45.31368" lon="5.88409">
        <ele>989.44702148438</ele>
        <time>2017-12-02T09:42:51Z</time>
      </trkpt>
      <trkpt lat="45.31368" lon="5.88401">
        <ele>989.44702148438</ele>
        <time>2017-12-02T09:42:56Z</time>
      </trkpt>
      <trkpt lat="45.31369" lon="5.88394">
        <ele>990.44702148438</ele>
        <time>2017-12-02T09:43:01Z</time>
      </trkpt>
      <trkpt lat="45.31371" lon="5.88388">
        <ele>993.44702148438</ele>
        <time>2017-12-02T09:43:05Z</time>
      </trkpt>
      <trkpt lat="45.31374" lon="5.88381">
        <ele>996.44702148438</ele>
        <time>2017-12-02T09:43:09Z</time>
      </trkpt>
      <trkpt lat="45.31376" lon="5.88374">
        <ele>997.44702148438</ele>
        <time>2017-12-02T09:43:13Z</time>
      </trkpt>
      <trkpt lat="45.31376" lon="5.88366">
        <ele>998.44702148438</ele>
        <time>2017-12-02T09:43:19Z</time>
      </trkpt>
      <trkpt lat="45.31378" lon="5.8836">
        <ele>997.44702148438</ele>
        <time>2017-12-02T09:43:22Z</time>
      </trkpt>
      <trkpt lat="45.31381" lon="5.88354">
        <ele>998.44702148438</ele>
        <time>2017-12-02T09:43:28Z</time>
      </trkpt>
      <trkpt lat="45.31384" lon="5.88348">
        <ele>1001.4470214844</ele>
        <time>2017-12-02T09:43:35Z</time>
      </trkpt>
      <trkpt lat="45.31383" lon="5.88341">
        <ele>1000.4470214844</ele>
        <time>2017-12-02T09:43:41Z</time>
      </trkpt>
      <trkpt lat="45.31385" lon="5.88335">
        <ele>999.44702148438</ele>
        <time>2017-12-02T09:43:47Z</time>
      </trkpt>
      <trkpt lat="45.31387" lon="5.88329">
        <ele>1000.4470214844</ele>
        <time>2017-12-02T09:43:55Z</time>
      </trkpt>
      <trkpt lat="45.3139" lon="5.88324">
        <ele>1001.4470214844</ele>
        <time>2017-12-02T09:44:01Z</time>
      </trkpt>
      <trkpt lat="45.31393" lon="5.88319">
        <ele>1002.4470214844</ele>
        <time>2017-12-02T09:44:06Z</time>
      </trkpt>
      <trkpt lat="45.31397" lon="5.88314">
        <ele>1006.4470214844</ele>
        <time>2017-12-02T09:44:14Z</time>
      </trkpt>
      <trkpt lat="45.31402" lon="5.88311">
        <ele>1008.4470214844</ele>
        <time>2017-12-02T09:44:18Z</time>
      </trkpt>
      <trkpt lat="45.31398" lon="5.88308">
        <ele>1005.4470214844</ele>
        <time>2017-12-02T09:44:20Z</time>
      </trkpt>
      <trkpt lat="45.31395" lon="5.88302">
        <ele>1008.4470214844</ele>
        <time>2017-12-02T09:44:25Z</time>
      </trkpt>
      <trkpt lat="45.31392" lon="5.88297">
        <ele>1010.4470214844</ele>
        <time>2017-12-02T09:44:29Z</time>
      </trkpt>
      <trkpt lat="45.31389" lon="5.8829">
        <ele>1012.4470214844</ele>
        <time>2017-12-02T09:44:34Z</time>
      </trkpt>
      <trkpt lat="45.31388" lon="5.88284">
        <ele>1015.4470214844</ele>
        <time>2017-12-02T09:44:39Z</time>
      </trkpt>
      <trkpt lat="45.31387" lon="5.88277">
        <ele>1017.4470214844</ele>
        <time>2017-12-02T09:44:43Z</time>
      </trkpt>
      <trkpt lat="45.3139" lon="5.8827">
        <ele>1016.4470214844</ele>
        <time>2017-12-02T09:44:50Z</time>
      </trkpt>
      <trkpt lat="45.31388" lon="5.88264">
        <ele>1016.4470214844</ele>
        <time>2017-12-02T09:44:56Z</time>
      </trkpt>
      <trkpt lat="45.31386" lon="5.88258">
        <ele>1018.4470214844</ele>
        <time>2017-12-02T09:44:59Z</time>
      </trkpt>
      <trkpt lat="45.31386" lon="5.88251">
        <ele>1021.4470214844</ele>
        <time>2017-12-02T09:45:03Z</time>
      </trkpt>
      <trkpt lat="45.31389" lon="5.88245">
        <ele>1022.4470214844</ele>
        <time>2017-12-02T09:45:08Z</time>
      </trkpt>
      <trkpt lat="45.31392" lon="5.88239">
        <ele>1023.4470214844</ele>
        <time>2017-12-02T09:45:12Z</time>
      </trkpt>
      <trkpt lat="45.31396" lon="5.88234">
        <ele>1028.4470214844</ele>
        <time>2017-12-02T09:45:17Z</time>
      </trkpt>
      <trkpt lat="45.31399" lon="5.88229">
        <ele>1029.4470214844</ele>
        <time>2017-12-02T09:45:22Z</time>
      </trkpt>
      <trkpt lat="45.31403" lon="5.88223">
        <ele>1034.4470214844</ele>
        <time>2017-12-02T09:45:30Z</time>
      </trkpt>
      <trkpt lat="45.31406" lon="5.88218">
        <ele>1035.4470214844</ele>
        <time>2017-12-02T09:45:35Z</time>
      </trkpt>
      <trkpt lat="45.31406" lon="5.88212">
        <ele>1035.4470214844</ele>
        <time>2017-12-02T09:45:42Z</time>
      </trkpt>
      <trkpt lat="45.31409" lon="5.88205">
        <ele>1035.4470214844</ele>
        <time>2017-12-02T09:45:51Z</time>
      </trkpt>
      <trkpt lat="45.31412" lon="5.88199">
        <ele>1033.4470214844</ele>
        <time>2017-12-02T09:45:57Z</time>
      </trkpt>
      <trkpt lat="45.31416" lon="5.88196">
        <ele>1037.4470214844</ele>
        <time>2017-12-02T09:46:03Z</time>
      </trkpt>
      <trkpt lat="45.31417" lon="5.88189">
        <ele>1038.4470214844</ele>
        <time>2017-12-02T09:46:12Z</time>
      </trkpt>
      <trkpt lat="45.3142" lon="5.88184">
        <ele>1039.4470214844</ele>
        <time>2017-12-02T09:46:19Z</time>
      </trkpt>
      <trkpt lat="45.31421" lon="5.88177">
        <ele>1044.4470214844</ele>
        <time>2017-12-02T09:46:28Z</time>
      </trkpt>
      <trkpt lat="45.31418" lon="5.8817">
        <ele>1047.4470214844</ele>
        <time>2017-12-02T09:46:33Z</time>
      </trkpt>
      <trkpt lat="45.31414" lon="5.88164">
        <ele>1048.4470214844</ele>
        <time>2017-12-02T09:46:37Z</time>
      </trkpt>
      <trkpt lat="45.31411" lon="5.88159">
        <ele>1050.4470214844</ele>
        <time>2017-12-02T09:46:41Z</time>
      </trkpt>
      <trkpt lat="45.31407" lon="5.88155">
        <ele>1053.4470214844</ele>
        <time>2017-12-02T09:46:48Z</time>
      </trkpt>
      <trkpt lat="45.31408" lon="5.88146">
        <ele>1055.4470214844</ele>
        <time>2017-12-02T09:47:01Z</time>
      </trkpt>
      <trkpt lat="45.31408" lon="5.88139">
        <ele>1056.4470214844</ele>
        <time>2017-12-02T09:47:04Z</time>
      </trkpt>
      <trkpt lat="45.31409" lon="5.88132">
        <ele>1056.4470214844</ele>
        <time>2017-12-02T09:47:09Z</time>
      </trkpt>
      <trkpt lat="45.31412" lon="5.88125">
        <ele>1057.4470214844</ele>
        <time>2017-12-02T09:47:14Z</time>
      </trkpt>
      <trkpt lat="45.31412" lon="5.88118">
        <ele>1062.4470214844</ele>
        <time>2017-12-02T09:47:20Z</time>
      </trkpt>
      <trkpt lat="45.31411" lon="5.88111">
        <ele>1066.4470214844</ele>
        <time>2017-12-02T09:47:29Z</time>
      </trkpt>
      <trkpt lat="45.31406" lon="5.88109">
        <ele>1068.4470214844</ele>
        <time>2017-12-02T09:47:35Z</time>
      </trkpt>
      <trkpt lat="45.31403" lon="5.88104">
        <ele>1070.4470214844</ele>
        <time>2017-12-02T09:47:40Z</time>
      </trkpt>
      <trkpt lat="45.31399" lon="5.88099">
        <ele>1073.4470214844</ele>
        <time>2017-12-02T09:47:53Z</time>
      </trkpt>
      <trkpt lat="45.31394" lon="5.88094">
        <ele>1072.4470214844</ele>
        <time>2017-12-02T09:47:59Z</time>
      </trkpt>
      <trkpt lat="45.3139" lon="5.88091">
        <ele>1078.4470214844</ele>
        <time>2017-12-02T09:48:07Z</time>
      </trkpt>
      <trkpt lat="45.31385" lon="5.88088">
        <ele>1081.4470214844</ele>
        <time>2017-12-02T09:48:14Z</time>
      </trkpt>
      <trkpt lat="45.31384" lon="5.88081">
        <ele>1084.4470214844</ele>
        <time>2017-12-02T09:48:26Z</time>
      </trkpt>
      <trkpt lat="45.31384" lon="5.88075">
        <ele>1088.4470214844</ele>
        <time>2017-12-02T09:48:35Z</time>
      </trkpt>
      <trkpt lat="45.31386" lon="5.88068">
        <ele>1093.4470214844</ele>
        <time>2017-12-02T09:48:44Z</time>
      </trkpt>
      <trkpt lat="45.31388" lon="5.88062">
        <ele>1097.4470214844</ele>
        <time>2017-12-02T09:48:53Z</time>
      </trkpt>
      <trkpt lat="45.31389" lon="5.88056">
        <ele>1093.4470214844</ele>
        <time>2017-12-02T09:48:56Z</time>
      </trkpt>
      <trkpt lat="45.31385" lon="5.88052">
        <ele>1093.4470214844</ele>
        <time>2017-12-02T09:49:01Z</time>
      </trkpt>
      <trkpt lat="45.31381" lon="5.88045">
        <ele>1093.4470214844</ele>
        <time>2017-12-02T09:49:08Z</time>
      </trkpt>
      <trkpt lat="45.31379" lon="5.8804">
        <ele>1097.4470214844</ele>
        <time>2017-12-02T09:49:14Z</time>
      </trkpt>
      <trkpt lat="45.31373" lon="5.88039">
        <ele>1094.4470214844</ele>
        <time>2017-12-02T09:49:22Z</time>
      </trkpt>
      <trkpt lat="45.31368" lon="5.88037">
        <ele>1096.4470214844</ele>
        <time>2017-12-02T09:49:26Z</time>
      </trkpt>
      <trkpt lat="45.31363" lon="5.88034">
        <ele>1098.4470214844</ele>
        <time>2017-12-02T09:49:30Z</time>
      </trkpt>
      <trkpt lat="45.3136" lon="5.8803">
        <ele>1098.4470214844</ele>
        <time>2017-12-02T09:49:34Z</time>
      </trkpt>
      <trkpt lat="45.31363" lon="5.88023">
        <ele>1099.4470214844</ele>
        <time>2017-12-02T09:49:39Z</time>
      </trkpt>
      <trkpt lat="45.31364" lon="5.88016">
        <ele>1100.4470214844</ele>
        <time>2017-12-02T09:49:45Z</time>
      </trkpt>
      <trkpt lat="45.31366" lon="5.8801">
        <ele>1101.4470214844</ele>
        <time>2017-12-02T09:49:50Z</time>
      </trkpt>
      <trkpt lat="45.31368" lon="5.88003">
        <ele>1104.4470214844</ele>
        <time>2017-12-02T09:49:57Z</time>
      </trkpt>
      <trkpt lat="45.3137" lon="5.87994">
        <ele>1101.4470214844</ele>
        <time>2017-12-02T09:50:02Z</time>
      </trkpt>
      <trkpt lat="45.31368" lon="5.87987">
        <ele>1101.4470214844</ele>
        <time>2017-12-02T09:50:07Z</time>
      </trkpt>
      <trkpt lat="45.31365" lon="5.87982">
        <ele>1104.4470214844</ele>
        <time>2017-12-02T09:50:12Z</time>
      </trkpt>
      <trkpt lat="45.31361" lon="5.87975">
        <ele>1109.4470214844</ele>
        <time>2017-12-02T09:50:18Z</time>
      </trkpt>
      <trkpt lat="45.31358" lon="5.87971">
        <ele>1111.4470214844</ele>
        <time>2017-12-02T09:50:23Z</time>
      </trkpt>
      <trkpt lat="45.31356" lon="5.87964">
        <ele>1113.4470214844</ele>
        <time>2017-12-02T09:50:32Z</time>
      </trkpt>
      <trkpt lat="45.3136" lon="5.87961">
        <ele>1116.4470214844</ele>
        <time>2017-12-02T09:50:38Z</time>
      </trkpt>
      <trkpt lat="45.31362" lon="5.87955">
        <ele>1119.4470214844</ele>
        <time>2017-12-02T09:50:46Z</time>
      </trkpt>
      <trkpt lat="45.31365" lon="5.8795">
        <ele>1121.4470214844</ele>
        <time>2017-12-02T09:50:53Z</time>
      </trkpt>
      <trkpt lat="45.31369" lon="5.87945">
        <ele>1123.4470214844</ele>
        <time>2017-12-02T09:50:59Z</time>
      </trkpt>
      <trkpt lat="45.31376" lon="5.87944">
        <ele>1126.4470214844</ele>
        <time>2017-12-02T09:51:02Z</time>
      </trkpt>
      <trkpt lat="45.31385" lon="5.87941">
        <ele>1130.4470214844</ele>
        <time>2017-12-02T09:51:06Z</time>
      </trkpt>
      <trkpt lat="45.31381" lon="5.87939">
        <ele>1129.4470214844</ele>
        <time>2017-12-02T09:51:08Z</time>
      </trkpt>
      <trkpt lat="45.31382" lon="5.87932">
        <ele>1129.4470214844</ele>
        <time>2017-12-02T09:51:16Z</time>
      </trkpt>
      <trkpt lat="45.3138" lon="5.87925">
        <ele>1130.4470214844</ele>
        <time>2017-12-02T09:51:22Z</time>
      </trkpt>
      <trkpt lat="45.31385" lon="5.87926">
        <ele>1132.4470214844</ele>
        <time>2017-12-02T09:51:25Z</time>
      </trkpt>
      <trkpt lat="45.31388" lon="5.8792">
        <ele>1133.4470214844</ele>
        <time>2017-12-02T09:51:28Z</time>
      </trkpt>
      <trkpt lat="45.31384" lon="5.87916">
        <ele>1133.4470214844</ele>
        <time>2017-12-02T09:51:30Z</time>
      </trkpt>
      <trkpt lat="45.31381" lon="5.87912">
        <ele>1133.4470214844</ele>
        <time>2017-12-02T09:51:34Z</time>
      </trkpt>
      <trkpt lat="45.31376" lon="5.87908">
        <ele>1134.4470214844</ele>
        <time>2017-12-02T09:51:37Z</time>
      </trkpt>
      <trkpt lat="45.31373" lon="5.87902">
        <ele>1137.4470214844</ele>
        <time>2017-12-02T09:51:42Z</time>
      </trkpt>
      <trkpt lat="45.3137" lon="5.87896">
        <ele>1137.4460449219</ele>
        <time>2017-12-02T09:51:47Z</time>
      </trkpt>
      <trkpt lat="45.31371" lon="5.87889">
        <ele>1139.4460449219</ele>
        <time>2017-12-02T09:51:53Z</time>
      </trkpt>
      <trkpt lat="45.31373" lon="5.87883">
        <ele>1140.4460449219</ele>
        <time>2017-12-02T09:51:57Z</time>
      </trkpt>
      <trkpt lat="45.31372" lon="5.87876">
        <ele>1141.4460449219</ele>
        <time>2017-12-02T09:52:02Z</time>
      </trkpt>
      <trkpt lat="45.31373" lon="5.8787">
        <ele>1144.4460449219</ele>
        <time>2017-12-02T09:52:08Z</time>
      </trkpt>
      <trkpt lat="45.31372" lon="5.87863">
        <ele>1147.4460449219</ele>
        <time>2017-12-02T09:52:15Z</time>
      </trkpt>
      <trkpt lat="45.31372" lon="5.87856">
        <ele>1150.4460449219</ele>
        <time>2017-12-02T09:52:21Z</time>
      </trkpt>
      <trkpt lat="45.3137" lon="5.8785">
        <ele>1155.4460449219</ele>
        <time>2017-12-02T09:52:43Z</time>
      </trkpt>
      <trkpt lat="45.3137" lon="5.87842">
        <ele>1153.4460449219</ele>
        <time>2017-12-02T09:52:47Z</time>
      </trkpt>
      <trkpt lat="45.31371" lon="5.87835">
        <ele>1153.4460449219</ele>
        <time>2017-12-02T09:52:53Z</time>
      </trkpt>
      <trkpt lat="45.31372" lon="5.87827">
        <ele>1154.4460449219</ele>
        <time>2017-12-02T09:52:58Z</time>
      </trkpt>
      <trkpt lat="45.31372" lon="5.87819">
        <ele>1157.4460449219</ele>
        <time>2017-12-02T09:53:07Z</time>
      </trkpt>
      <trkpt lat="45.31372" lon="5.87812">
        <ele>1156.4460449219</ele>
        <time>2017-12-02T09:53:14Z</time>
      </trkpt>
      <trkpt lat="45.31373" lon="5.87805">
        <ele>1157.4460449219</ele>
        <time>2017-12-02T09:53:21Z</time>
      </trkpt>
      <trkpt lat="45.31375" lon="5.87799">
        <ele>1158.4460449219</ele>
        <time>2017-12-02T09:53:25Z</time>
      </trkpt>
      <trkpt lat="45.31374" lon="5.87791">
        <ele>1163.4460449219</ele>
        <time>2017-12-02T09:53:36Z</time>
      </trkpt>
      <trkpt lat="45.31374" lon="5.87783">
        <ele>1164.4460449219</ele>
        <time>2017-12-02T09:53:42Z</time>
      </trkpt>
      <trkpt lat="45.31373" lon="5.87776">
        <ele>1169.4460449219</ele>
        <time>2017-12-02T09:53:49Z</time>
      </trkpt>
      <trkpt lat="45.31372" lon="5.87768">
        <ele>1169.4460449219</ele>
        <time>2017-12-02T09:53:51Z</time>
      </trkpt>
      <trkpt lat="45.31372" lon="5.87761">
        <ele>1172.4460449219</ele>
        <time>2017-12-02T09:53:59Z</time>
      </trkpt>
      <trkpt lat="45.31372" lon="5.87754">
        <ele>1171.4460449219</ele>
        <time>2017-12-02T09:54:03Z</time>
      </trkpt>
      <trkpt lat="45.31373" lon="5.87746">
        <ele>1175.4460449219</ele>
        <time>2017-12-02T09:54:08Z</time>
      </trkpt>
      <trkpt lat="45.31369" lon="5.87743">
        <ele>1173.4460449219</ele>
        <time>2017-12-02T09:54:10Z</time>
      </trkpt>
      <trkpt lat="45.3137" lon="5.87735">
        <ele>1178.4460449219</ele>
        <time>2017-12-02T09:54:15Z</time>
      </trkpt>
      <trkpt lat="45.31367" lon="5.87729">
        <ele>1182.4460449219</ele>
        <time>2017-12-02T09:54:22Z</time>
      </trkpt>
      <trkpt lat="45.31366" lon="5.87723">
        <ele>1184.4460449219</ele>
        <time>2017-12-02T09:54:27Z</time>
      </trkpt>
      <trkpt lat="45.31368" lon="5.87715">
        <ele>1183.4460449219</ele>
        <time>2017-12-02T09:54:33Z</time>
      </trkpt>
      <trkpt lat="45.31372" lon="5.87709">
        <ele>1185.4460449219</ele>
        <time>2017-12-02T09:54:37Z</time>
      </trkpt>
      <trkpt lat="45.31376" lon="5.87704">
        <ele>1189.4460449219</ele>
        <time>2017-12-02T09:54:41Z</time>
      </trkpt>
      <trkpt lat="45.31373" lon="5.87697">
        <ele>1188.4460449219</ele>
        <time>2017-12-02T09:54:47Z</time>
      </trkpt>
      <trkpt lat="45.31375" lon="5.87691">
        <ele>1190.4460449219</ele>
        <time>2017-12-02T09:54:54Z</time>
      </trkpt>
      <trkpt lat="45.31373" lon="5.87685">
        <ele>1192.4460449219</ele>
        <time>2017-12-02T09:55:02Z</time>
      </trkpt>
      <trkpt lat="45.3137" lon="5.8768">
        <ele>1193.4460449219</ele>
        <time>2017-12-02T09:55:08Z</time>
      </trkpt>
      <trkpt lat="45.31365" lon="5.87676">
        <ele>1192.4460449219</ele>
        <time>2017-12-02T09:55:13Z</time>
      </trkpt>
      <trkpt lat="45.31362" lon="5.87671">
        <ele>1193.4460449219</ele>
        <time>2017-12-02T09:55:22Z</time>
      </trkpt>
      <trkpt lat="45.31361" lon="5.87664">
        <ele>1197.4460449219</ele>
        <time>2017-12-02T09:55:33Z</time>
      </trkpt>
      <trkpt lat="45.31359" lon="5.87658">
        <ele>1199.4460449219</ele>
        <time>2017-12-02T09:55:43Z</time>
      </trkpt>
      <trkpt lat="45.31362" lon="5.87651">
        <ele>1200.4460449219</ele>
        <time>2017-12-02T09:55:47Z</time>
      </trkpt>
      <trkpt lat="45.31367" lon="5.87645">
        <ele>1201.4460449219</ele>
        <time>2017-12-02T09:55:52Z</time>
      </trkpt>
      <trkpt lat="45.31371" lon="5.8764">
        <ele>1205.4460449219</ele>
        <time>2017-12-02T09:55:57Z</time>
      </trkpt>
      <trkpt lat="45.31374" lon="5.87635">
        <ele>1206.4460449219</ele>
        <time>2017-12-02T09:56:00Z</time>
      </trkpt>
      <trkpt lat="45.31375" lon="5.87628">
        <ele>1208.4460449219</ele>
        <time>2017-12-02T09:56:06Z</time>
      </trkpt>
      <trkpt lat="45.31374" lon="5.87621">
        <ele>1210.4460449219</ele>
        <time>2017-12-02T09:56:13Z</time>
      </trkpt>
      <trkpt lat="45.31369" lon="5.8762">
        <ele>1212.4460449219</ele>
        <time>2017-12-02T09:56:17Z</time>
      </trkpt>
      <trkpt lat="45.31364" lon="5.87618">
        <ele>1213.4460449219</ele>
        <time>2017-12-02T09:56:22Z</time>
      </trkpt>
      <trkpt lat="45.3136" lon="5.87613">
        <ele>1215.4460449219</ele>
        <time>2017-12-02T09:56:27Z</time>
      </trkpt>
      <trkpt lat="45.31357" lon="5.87608">
        <ele>1218.4460449219</ele>
        <time>2017-12-02T09:56:31Z</time>
      </trkpt>
      <trkpt lat="45.31352" lon="5.87604">
        <ele>1220.4460449219</ele>
        <time>2017-12-02T09:56:36Z</time>
      </trkpt>
      <trkpt lat="45.3135" lon="5.87598">
        <ele>1223.4460449219</ele>
        <time>2017-12-02T09:56:45Z</time>
      </trkpt>
      <trkpt lat="45.31354" lon="5.87593">
        <ele>1222.4460449219</ele>
        <time>2017-12-02T09:56:50Z</time>
      </trkpt>
      <trkpt lat="45.31357" lon="5.87587">
        <ele>1222.4460449219</ele>
        <time>2017-12-02T09:56:54Z</time>
      </trkpt>
      <trkpt lat="45.31361" lon="5.87582">
        <ele>1225.4460449219</ele>
        <time>2017-12-02T09:57:00Z</time>
      </trkpt>
      <trkpt lat="45.31361" lon="5.87575">
        <ele>1228.4460449219</ele>
        <time>2017-12-02T09:57:07Z</time>
      </trkpt>
      <trkpt lat="45.31357" lon="5.8757">
        <ele>1229.4460449219</ele>
        <time>2017-12-02T09:57:13Z</time>
      </trkpt>
      <trkpt lat="45.31354" lon="5.87564">
        <ele>1231.4460449219</ele>
        <time>2017-12-02T09:57:22Z</time>
      </trkpt>
      <trkpt lat="45.31349" lon="5.87562">
        <ele>1232.4460449219</ele>
        <time>2017-12-02T09:57:28Z</time>
      </trkpt>
      <trkpt lat="45.31347" lon="5.87556">
        <ele>1234.4460449219</ele>
        <time>2017-12-02T09:57:35Z</time>
      </trkpt>
      <trkpt lat="45.31347" lon="5.87549">
        <ele>1233.4460449219</ele>
        <time>2017-12-02T09:57:43Z</time>
      </trkpt>
      <trkpt lat="45.31352" lon="5.87546">
        <ele>1235.4460449219</ele>
        <time>2017-12-02T09:57:49Z</time>
      </trkpt>
      <trkpt lat="45.31348" lon="5.87542">
        <ele>1234.4460449219</ele>
        <time>2017-12-02T09:57:52Z</time>
      </trkpt>
      <trkpt lat="45.31344" lon="5.87537">
        <ele>1236.4460449219</ele>
        <time>2017-12-02T09:58:01Z</time>
      </trkpt>
      <trkpt lat="45.31341" lon="5.87532">
        <ele>1237.4460449219</ele>
        <time>2017-12-02T09:58:07Z</time>
      </trkpt>
      <trkpt lat="45.31344" lon="5.87526">
        <ele>1241.4460449219</ele>
        <time>2017-12-02T09:58:17Z</time>
      </trkpt>
      <trkpt lat="45.31347" lon="5.87521">
        <ele>1243.4460449219</ele>
        <time>2017-12-02T09:58:24Z</time>
      </trkpt>
      <trkpt lat="45.31346" lon="5.87515">
        <ele>1245.4460449219</ele>
        <time>2017-12-02T09:58:32Z</time>
      </trkpt>
      <trkpt lat="45.31345" lon="5.87508">
        <ele>1248.4460449219</ele>
        <time>2017-12-02T09:58:39Z</time>
      </trkpt>
      <trkpt lat="45.3134" lon="5.87504">
        <ele>1254.4460449219</ele>
        <time>2017-12-02T09:58:49Z</time>
      </trkpt>
      <trkpt lat="45.31335" lon="5.875">
        <ele>1251.4460449219</ele>
        <time>2017-12-02T09:58:53Z</time>
      </trkpt>
      <trkpt lat="45.31337" lon="5.87494">
        <ele>1253.4460449219</ele>
        <time>2017-12-02T09:58:57Z</time>
      </trkpt>
      <trkpt lat="45.3134" lon="5.87489">
        <ele>1251.4460449219</ele>
        <time>2017-12-02T09:59:01Z</time>
      </trkpt>
      <trkpt lat="45.31343" lon="5.87482">
        <ele>1256.4460449219</ele>
        <time>2017-12-02T09:59:07Z</time>
      </trkpt>
      <trkpt lat="45.31345" lon="5.87475">
        <ele>1256.4460449219</ele>
        <time>2017-12-02T09:59:13Z</time>
      </trkpt>
      <trkpt lat="45.31341" lon="5.87469">
        <ele>1258.4460449219</ele>
        <time>2017-12-02T09:59:20Z</time>
      </trkpt>
      <trkpt lat="45.31337" lon="5.87463">
        <ele>1262.4460449219</ele>
        <time>2017-12-02T09:59:26Z</time>
      </trkpt>
      <trkpt lat="45.31335" lon="5.87456">
        <ele>1264.4460449219</ele>
        <time>2017-12-02T09:59:34Z</time>
      </trkpt>
      <trkpt lat="45.31332" lon="5.8745">
        <ele>1266.4460449219</ele>
        <time>2017-12-02T09:59:40Z</time>
      </trkpt>
      <trkpt lat="45.31328" lon="5.87445">
        <ele>1269.4460449219</ele>
        <time>2017-12-02T09:59:46Z</time>
      </trkpt>
      <trkpt lat="45.31326" lon="5.87439">
        <ele>1272.4460449219</ele>
        <time>2017-12-02T09:59:54Z</time>
      </trkpt>
      <trkpt lat="45.31322" lon="5.87434">
        <ele>1271.4460449219</ele>
        <time>2017-12-02T10:00:02Z</time>
      </trkpt>
      <trkpt lat="45.31319" lon="5.8743">
        <ele>1271.4460449219</ele>
        <time>2017-12-02T10:00:09Z</time>
      </trkpt>
      <trkpt lat="45.31316" lon="5.87424">
        <ele>1274.4460449219</ele>
        <time>2017-12-02T10:00:14Z</time>
      </trkpt>
      <trkpt lat="45.31318" lon="5.87418">
        <ele>1278.4460449219</ele>
        <time>2017-12-02T10:00:21Z</time>
      </trkpt>
      <trkpt lat="45.31321" lon="5.87412">
        <ele>1279.4460449219</ele>
        <time>2017-12-02T10:00:26Z</time>
      </trkpt>
      <trkpt lat="45.3132" lon="5.87406">
        <ele>1278.4460449219</ele>
        <time>2017-12-02T10:00:31Z</time>
      </trkpt>
      <trkpt lat="45.31321" lon="5.87399">
        <ele>1279.4460449219</ele>
        <time>2017-12-02T10:00:37Z</time>
      </trkpt>
      <trkpt lat="45.31322" lon="5.87392">
        <ele>1282.4460449219</ele>
        <time>2017-12-02T10:00:43Z</time>
      </trkpt>
      <trkpt lat="45.31326" lon="5.87386">
        <ele>1285.4460449219</ele>
        <time>2017-12-02T10:00:47Z</time>
      </trkpt>
      <trkpt lat="45.31329" lon="5.87378">
        <ele>1286.4460449219</ele>
        <time>2017-12-02T10:00:51Z</time>
      </trkpt>
      <trkpt lat="45.31329" lon="5.87371">
        <ele>1285.4460449219</ele>
        <time>2017-12-02T10:00:54Z</time>
      </trkpt>
      <trkpt lat="45.31331" lon="5.87364">
        <ele>1288.4460449219</ele>
        <time>2017-12-02T10:00:57Z</time>
      </trkpt>
      <trkpt lat="45.31332" lon="5.87356">
        <ele>1288.4460449219</ele>
        <time>2017-12-02T10:01:00Z</time>
      </trkpt>
      <trkpt lat="45.31332" lon="5.87349">
        <ele>1288.4460449219</ele>
        <time>2017-12-02T10:01:03Z</time>
      </trkpt>
      <trkpt lat="45.31337" lon="5.87342">
        <ele>1287.4460449219</ele>
        <time>2017-12-02T10:01:06Z</time>
      </trkpt>
      <trkpt lat="45.31339" lon="5.87336">
        <ele>1288.4460449219</ele>
        <time>2017-12-02T10:01:09Z</time>
      </trkpt>
      <trkpt lat="45.31338" lon="5.87329">
        <ele>1290.4460449219</ele>
        <time>2017-12-02T10:01:13Z</time>
      </trkpt>
      <trkpt lat="45.31336" lon="5.87323">
        <ele>1291.4460449219</ele>
        <time>2017-12-02T10:01:17Z</time>
      </trkpt>
      <trkpt lat="45.31336" lon="5.87315">
        <ele>1293.4460449219</ele>
        <time>2017-12-02T10:01:21Z</time>
      </trkpt>
      <trkpt lat="45.31337" lon="5.87308">
        <ele>1293.4460449219</ele>
        <time>2017-12-02T10:01:25Z</time>
      </trkpt>
      <trkpt lat="45.3134" lon="5.87302">
        <ele>1294.4460449219</ele>
        <time>2017-12-02T10:01:30Z</time>
      </trkpt>
      <trkpt lat="45.31338" lon="5.87296">
        <ele>1295.4460449219</ele>
        <time>2017-12-02T10:01:34Z</time>
      </trkpt>
      <trkpt lat="45.31338" lon="5.87289">
        <ele>1294.4460449219</ele>
        <time>2017-12-02T10:01:39Z</time>
      </trkpt>
      <trkpt lat="45.3134" lon="5.87282">
        <ele>1292.4460449219</ele>
        <time>2017-12-02T10:01:44Z</time>
      </trkpt>
      <trkpt lat="45.3134" lon="5.87275">
        <ele>1297.4460449219</ele>
        <time>2017-12-02T10:01:53Z</time>
      </trkpt>
      <trkpt lat="45.31343" lon="5.87269">
        <ele>1300.4460449219</ele>
        <time>2017-12-02T10:02:00Z</time>
      </trkpt>
      <trkpt lat="45.31345" lon="5.87264">
        <ele>1299.4460449219</ele>
        <time>2017-12-02T10:02:03Z</time>
      </trkpt>
      <trkpt lat="45.31348" lon="5.87257">
        <ele>1304.4460449219</ele>
        <time>2017-12-02T10:02:12Z</time>
      </trkpt>
      <trkpt lat="45.31345" lon="5.87251">
        <ele>1304.4460449219</ele>
        <time>2017-12-02T10:02:16Z</time>
      </trkpt>
      <trkpt lat="45.31343" lon="5.87245">
        <ele>1308.4460449219</ele>
        <time>2017-12-02T10:02:25Z</time>
      </trkpt>
      <trkpt lat="45.31345" lon="5.87239">
        <ele>1310.4460449219</ele>
        <time>2017-12-02T10:02:31Z</time>
      </trkpt>
      <trkpt lat="45.31345" lon="5.87232">
        <ele>1309.4460449219</ele>
        <time>2017-12-02T10:02:37Z</time>
      </trkpt>
      <trkpt lat="45.31348" lon="5.87226">
        <ele>1309.4460449219</ele>
        <time>2017-12-02T10:02:42Z</time>
      </trkpt>
      <trkpt lat="45.31351" lon="5.87222">
        <ele>1313.4460449219</ele>
        <time>2017-12-02T10:02:47Z</time>
      </trkpt>
      <trkpt lat="45.31354" lon="5.87215">
        <ele>1314.4460449219</ele>
        <time>2017-12-02T10:02:53Z</time>
      </trkpt>
      <trkpt lat="45.31356" lon="5.87209">
        <ele>1314.4460449219</ele>
        <time>2017-12-02T10:02:58Z</time>
      </trkpt>
      <trkpt lat="45.3136" lon="5.87205">
        <ele>1314.4460449219</ele>
        <time>2017-12-02T10:03:35Z</time>
      </trkpt>
      <trkpt lat="45.31361" lon="5.87214">
        <ele>1324.4460449219</ele>
        <time>2017-12-02T10:05:00Z</time>
      </trkpt>
      <trkpt lat="45.31359" lon="5.87223">
        <ele>1322.4460449219</ele>
        <time>2017-12-02T10:05:02Z</time>
      </trkpt>
      <trkpt lat="45.31355" lon="5.87242">
        <ele>1319.4460449219</ele>
        <time>2017-12-02T10:05:04Z</time>
      </trkpt>
      <trkpt lat="45.31356" lon="5.87268">
        <ele>1313.4460449219</ele>
        <time>2017-12-02T10:05:07Z</time>
      </trkpt>
      <trkpt lat="45.31351" lon="5.87303">
        <ele>1312.4460449219</ele>
        <time>2017-12-02T10:05:09Z</time>
      </trkpt>
      <trkpt lat="45.31341" lon="5.87335">
        <ele>1305.4460449219</ele>
        <time>2017-12-02T10:05:11Z</time>
      </trkpt>
      <trkpt lat="45.31342" lon="5.87359">
        <ele>1301.4460449219</ele>
        <time>2017-12-02T10:05:13Z</time>
      </trkpt>
      <trkpt lat="45.31339" lon="5.87369">
        <ele>1300.4460449219</ele>
        <time>2017-12-02T10:05:14Z</time>
      </trkpt>
      <trkpt lat="45.31331" lon="5.87396">
        <ele>1407.4460449219</ele>
        <time>2017-12-02T10:05:17Z</time>
      </trkpt>
      <trkpt lat="45.31332" lon="5.87419">
        <ele>1378.4460449219</ele>
        <time>2017-12-02T10:05:19Z</time>
      </trkpt>
      <trkpt lat="45.31334" lon="5.87424">
        <ele>1355.4460449219</ele>
        <time>2017-12-02T10:05:20Z</time>
      </trkpt>
      <trkpt lat="45.31335" lon="5.87444">
        <ele>1330.4460449219</ele>
        <time>2017-12-02T10:05:22Z</time>
      </trkpt>
      <trkpt lat="45.31344" lon="5.87457">
        <ele>1331.4460449219</ele>
        <time>2017-12-02T10:05:24Z</time>
      </trkpt>
      <trkpt lat="45.31355" lon="5.87469">
        <ele>1337.4460449219</ele>
        <time>2017-12-02T10:05:26Z</time>
      </trkpt>
      <trkpt lat="45.31353" lon="5.87492">
        <ele>1325.4460449219</ele>
        <time>2017-12-02T10:05:28Z</time>
      </trkpt>
      <trkpt lat="45.31357" lon="5.87518">
        <ele>1313.4460449219</ele>
        <time>2017-12-02T10:05:30Z</time>
      </trkpt>
      <trkpt lat="45.31365" lon="5.87542">
        <ele>1312.4460449219</ele>
        <time>2017-12-02T10:05:32Z</time>
      </trkpt>
      <trkpt lat="45.31373" lon="5.87579">
        <ele>1307.4460449219</ele>
        <time>2017-12-02T10:05:34Z</time>
      </trkpt>
      <trkpt lat="45.31377" lon="5.8761">
        <ele>1299.4460449219</ele>
        <time>2017-12-02T10:05:36Z</time>
      </trkpt>
      <trkpt lat="45.31373" lon="5.87629">
        <ele>1292.4460449219</ele>
        <time>2017-12-02T10:05:37Z</time>
      </trkpt>
      <trkpt lat="45.31374" lon="5.87649">
        <ele>1288.4460449219</ele>
        <time>2017-12-02T10:05:38Z</time>
      </trkpt>
      <trkpt lat="45.3138" lon="5.87684">
        <ele>1284.4460449219</ele>
        <time>2017-12-02T10:05:40Z</time>
      </trkpt>
      <trkpt lat="45.31379" lon="5.87717">
        <ele>1277.4460449219</ele>
        <time>2017-12-02T10:05:42Z</time>
      </trkpt>
      <trkpt lat="45.3139" lon="5.87754">
        <ele>1270.4460449219</ele>
        <time>2017-12-02T10:05:44Z</time>
      </trkpt>
      <trkpt lat="45.31388" lon="5.87779">
        <ele>1264.4460449219</ele>
        <time>2017-12-02T10:05:45Z</time>
      </trkpt>
      <trkpt lat="45.31387" lon="5.87803">
        <ele>1256.4460449219</ele>
        <time>2017-12-02T10:05:47Z</time>
      </trkpt>
      <trkpt lat="45.3139" lon="5.8782">
        <ele>1253.4460449219</ele>
        <time>2017-12-02T10:05:48Z</time>
      </trkpt>
      <trkpt lat="45.31389" lon="5.87848">
        <ele>1248.4460449219</ele>
        <time>2017-12-02T10:05:50Z</time>
      </trkpt>
      <trkpt lat="45.31386" lon="5.87859">
        <ele>1239.4460449219</ele>
        <time>2017-12-02T10:05:51Z</time>
      </trkpt>
      <trkpt lat="45.31387" lon="5.87878">
        <ele>1233.4460449219</ele>
        <time>2017-12-02T10:05:53Z</time>
      </trkpt>
      <trkpt lat="45.31389" lon="5.87899">
        <ele>1230.4470214844</ele>
        <time>2017-12-02T10:05:55Z</time>
      </trkpt>
      <trkpt lat="45.31389" lon="5.87932">
        <ele>1226.4470214844</ele>
        <time>2017-12-02T10:05:57Z</time>
      </trkpt>
      <trkpt lat="45.31382" lon="5.87945">
        <ele>1222.4470214844</ele>
        <time>2017-12-02T10:05:58Z</time>
      </trkpt>
      <trkpt lat="45.31373" lon="5.87959">
        <ele>1220.4470214844</ele>
        <time>2017-12-02T10:05:59Z</time>
      </trkpt>
      <trkpt lat="45.31368" lon="5.87992">
        <ele>1215.4470214844</ele>
        <time>2017-12-02T10:06:01Z</time>
      </trkpt>
      <trkpt lat="45.31365" lon="5.88036">
        <ele>1214.4470214844</ele>
        <time>2017-12-02T10:06:03Z</time>
      </trkpt>
      <trkpt lat="45.31361" lon="5.88073">
        <ele>1209.4470214844</ele>
        <time>2017-12-02T10:06:05Z</time>
      </trkpt>
      <trkpt lat="45.31382" lon="5.88093">
        <ele>1204.4470214844</ele>
        <time>2017-12-02T10:06:07Z</time>
      </trkpt>
      <trkpt lat="45.3139" lon="5.88103">
        <ele>1203.4470214844</ele>
        <time>2017-12-02T10:06:08Z</time>
      </trkpt>
      <trkpt lat="45.31403" lon="5.88128">
        <ele>1200.4470214844</ele>
        <time>2017-12-02T10:06:10Z</time>
      </trkpt>
      <trkpt lat="45.31419" lon="5.88158">
        <ele>1196.4470214844</ele>
        <time>2017-12-02T10:06:12Z</time>
      </trkpt>
      <trkpt lat="45.31425" lon="5.88171">
        <ele>1190.4470214844</ele>
        <time>2017-12-02T10:06:14Z</time>
      </trkpt>
      <trkpt lat="45.31429" lon="5.88206">
        <ele>1187.4470214844</ele>
        <time>2017-12-02T10:06:16Z</time>
      </trkpt>
      <trkpt lat="45.31435" lon="5.88209">
        <ele>1179.4470214844</ele>
        <time>2017-12-02T10:06:18Z</time>
      </trkpt>
      <trkpt lat="45.3143" lon="5.88236">
        <ele>1177.4470214844</ele>
        <time>2017-12-02T10:06:20Z</time>
      </trkpt>
      <trkpt lat="45.31425" lon="5.88252">
        <ele>1168.4470214844</ele>
        <time>2017-12-02T10:06:21Z</time>
      </trkpt>
      <trkpt lat="45.31422" lon="5.88273">
        <ele>1163.4470214844</ele>
        <time>2017-12-02T10:06:23Z</time>
      </trkpt>
      <trkpt lat="45.31418" lon="5.88297">
        <ele>1149.4470214844</ele>
        <time>2017-12-02T10:06:25Z</time>
      </trkpt>
      <trkpt lat="45.31412" lon="5.88305">
        <ele>1141.4470214844</ele>
        <time>2017-12-02T10:06:26Z</time>
      </trkpt>
      <trkpt lat="45.31403" lon="5.88318">
        <ele>1133.4470214844</ele>
        <time>2017-12-02T10:06:28Z</time>
      </trkpt>
      <trkpt lat="45.31395" lon="5.8833">
        <ele>1126.4470214844</ele>
        <time>2017-12-02T10:06:29Z</time>
      </trkpt>
      <trkpt lat="45.31393" lon="5.88358">
        <ele>1122.4470214844</ele>
        <time>2017-12-02T10:06:31Z</time>
      </trkpt>
      <trkpt lat="45.31383" lon="5.88382">
        <ele>1112.4470214844</ele>
        <time>2017-12-02T10:06:33Z</time>
      </trkpt>
      <trkpt lat="45.31383" lon="5.88388">
        <ele>1102.4470214844</ele>
        <time>2017-12-02T10:06:34Z</time>
      </trkpt>
      <trkpt lat="45.31383" lon="5.88401">
        <ele>1096.4470214844</ele>
        <time>2017-12-02T10:06:35Z</time>
      </trkpt>
      <trkpt lat="45.31382" lon="5.88416">
        <ele>1091.4470214844</ele>
        <time>2017-12-02T10:06:36Z</time>
      </trkpt>
      <trkpt lat="45.31381" lon="5.88449">
        <ele>1084.4470214844</ele>
        <time>2017-12-02T10:06:38Z</time>
      </trkpt>
      <trkpt lat="45.31378" lon="5.88484">
        <ele>1075.4470214844</ele>
        <time>2017-12-02T10:06:40Z</time>
      </trkpt>
      <trkpt lat="45.31376" lon="5.88516">
        <ele>1066.4470214844</ele>
        <time>2017-12-02T10:06:42Z</time>
      </trkpt>
      <trkpt lat="45.31374" lon="5.88546">
        <ele>1059.4470214844</ele>
        <time>2017-12-02T10:06:44Z</time>
      </trkpt>
      <trkpt lat="45.31378" lon="5.88564">
        <ele>1053.4470214844</ele>
        <time>2017-12-02T10:06:46Z</time>
      </trkpt>
      <trkpt lat="45.31386" lon="5.88577">
        <ele>1046.4470214844</ele>
        <time>2017-12-02T10:06:48Z</time>
      </trkpt>
      <trkpt lat="45.31389" lon="5.88584">
        <ele>1045.4470214844</ele>
        <time>2017-12-02T10:06:49Z</time>
      </trkpt>
      <trkpt lat="45.31391" lon="5.88592">
        <ele>1039.4470214844</ele>
        <time>2017-12-02T10:06:50Z</time>
      </trkpt>
      <trkpt lat="45.31394" lon="5.88599">
        <ele>1037.4470214844</ele>
        <time>2017-12-02T10:06:51Z</time>
      </trkpt>
      <trkpt lat="45.31398" lon="5.88605">
        <ele>1031.4470214844</ele>
        <time>2017-12-02T10:06:53Z</time>
      </trkpt>
      <trkpt lat="45.314" lon="5.88599">
        <ele>987.44702148438</ele>
        <time>2017-12-02T10:07:11Z</time>
      </trkpt>
      <trkpt lat="45.314" lon="5.88606">
        <ele>984.44799804688</ele>
        <time>2017-12-02T10:07:17Z</time>
      </trkpt>
      <trkpt lat="45.31402" lon="5.88612">
        <ele>982.44799804688</ele>
        <time>2017-12-02T10:07:22Z</time>
      </trkpt>
      <trkpt lat="45.31401" lon="5.88606">
        <ele>967.44799804688</ele>
        <time>2017-12-02T10:09:38Z</time>
      </trkpt>
    </trkseg>
  </trk>
</gpx>